Portsmouth, Virginia - KPWR: 24-hour Summary Portsmouth Weather Records Service - Portsmouth, Virginia



LOCAL CLIMATOLOGICAL DATA: This Month's Data
[updated each morning between 7AM and 9AM]
Station: Portsmouth, Virginia - KPWR Latitude: 36° 48' 04" N Longitude: 76° 19' 37" W Elevation (ground): 13 ft. Time Zone: Eastern

BE SURE TO RELOAD/REFRESH THIS SCREEN FOR DAILY UPDATES BY RIGHT-CLICKING THE BACKGROUND The data in this frame and listed below are final adjusted site data for the time period.

-------------------------------------------------------------------------------------------------------------------------------------------
FRIDAY			Temp	Hi	Low	Out	Dew	Wind	Wind	Wind	Hi	Hi	Wind	Heat	THW			Rain	Heat	Cool	In 	In	In 	In 	Wind	Wind	ISS 	Arc.
Date		Time	Out	Temp	Temp	Hum	Pt.	Speed	Dir	Run	Speed	Dir	Chill	Index	Index	Bar  	Rain	Rate	D-D 	D-D 	Temp	Hum	Dew	Heat	Samp	Tx 	Recept	Int.
06/01/18	1:00 a	74.9	75.6	74.9	96	73.7	0.0	W	0.00	4.0	W	74.9	78.6	78.6	29.871	0.00	0.00	0.000	0.413	88.6	37	59.0	88.3	1403	1	100.0	60
06/01/18	2:00 a	74.7	75.0	74.7	96	73.5	0.0	---	0.00	0.0	---	74.7	78.2	78.2	29.846	0.00	0.00	0.000	0.404	86.3	36	56.2	85.8	1406	1	100.0	60
06/01/18	3:00 a	74.0	74.7	74.0	97	73.1	0.0	---	0.00	0.0	---	74.0	77.2	77.2	29.834	0.00	0.00	0.000	0.375	86.8	38	58.1	86.7	1404	1	100.0	60
06/01/18	4:00 a	73.6	74.1	73.6	98	73.0	0.0	---	0.00	0.0	---	73.6	76.9	76.9	29.818	0.00	0.00	0.000	0.358	86.7	39	58.8	86.8	1405	1	100.0	60
06/01/18	5:00 a	73.5	73.6	73.3	99	73.2	0.0	---	0.00	0.0	---	73.5	77.0	77.0	29.809	0.00	0.00	0.000	0.354	86.4	40	59.2	86.7	1405	1	100.0	60
06/01/18	6:00 a	73.8	73.8	73.5	99	73.5	0.0	---	0.00	0.0	---	73.8	77.3	77.3	29.826	0.00	0.00	0.000	0.367	86.4	40	59.2	86.7	1405	1	100.0	60
06/01/18	7:00 a	74.2	74.2	73.8	99	73.9	0.0	---	0.00	0.0	---	74.2	77.7	77.7	29.835	0.00	0.00	0.000	0.383	85.5	39	57.7	85.5	1405	1	100.0	60
06/01/18	8:00 a	74.8	74.8	74.2	99	74.5	0.0	---	0.00	0.0	---	74.8	78.5	78.5	29.845	0.00	0.00	0.000	0.408	86.0	40	58.9	86.2	1404	1	100.0	60
06/01/18	9:00 a	76.1	76.1	74.8	98	75.5	0.0	SW	0.00	4.0	SW	76.1	80.4	80.4	29.838	0.00	0.00	0.000	0.462	86.4	40	59.2	86.7	1405	1	100.0	60
06/01/18	10:00 a	79.8	79.8	76.1	91	76.9	0.0	SSE	0.00	4.0	SSE	79.8	86.6	86.6	29.839	0.00	0.00	0.000	0.617	82.2	40	55.5	81.6	1405	1	100.0	60
06/01/18	11:00 a	84.4	84.4	79.8	83	78.7	0.0	SSE	0.00	7.0	S	84.4	96.3	96.3	29.828	0.00	0.00	0.000	0.808	83.7	42	58.2	84.1	1405	1	100.0	60
06/01/18	12:00 p	86.8	86.8	84.4	79	79.5	0.0	SSW	0.00	7.0	W	86.8	101.0	101.0	29.826	0.00	0.00	0.000	0.908	84.6	41	58.3	85.0	1405	1	100.0	60
06/01/18	1:00 p	88.4	88.4	86.8	74	79.1	0.0	SSW	0.00	12.0	WNW	88.4	102.5	102.5	29.808	0.00	0.00	0.000	0.975	87.2	36	57.0	86.6	1405	1	100.0	60
06/01/18	2:00 p	89.2	89.2	88.4	73	79.4	0.0	W	0.00	12.0	SSW	89.2	105.0	105.0	29.792	0.00	0.00	0.000	1.008	87.7	40	60.4	87.9	1404	1	100.0	60
06/01/18	3:00 p	90.9	90.9	89.2	62	76.1	0.0	WNW	0.00	11.0	W	90.9	103.4	103.4	29.778	0.00	0.00	0.000	1.079	89.7	33	56.8	89.0	1405	1	100.0	60
06/01/18	4:00 p	91.6	91.6	90.9	64	77.7	0.0	WNW	0.00	15.0	WNW	91.6	106.7	106.7	29.760	0.00	0.00	0.000	1.108	90.1	33	57.1	89.7	1406	1	100.0	60
06/01/18	5:00 p	92.5	92.5	91.5	63	78.1	0.0	W	0.00	13.0	SSW	92.5	108.6	108.6	29.748	0.00	0.00	0.000	1.146	92.6	32	58.4	92.7	1404	1	100.0	60
06/01/18	6:00 p	92.2	92.7	92.2	59	75.8	0.0	WNW	0.00	12.0	W	92.2	104.9	104.9	29.726	0.00	0.00	0.000	1.133	92.1	30	56.2	91.5	1405	1	100.0	60
06/01/18	7:00 p	90.9	92.2	90.9	60	75.1	0.0	SSW	0.00	13.0	S	90.9	102.1	102.1	29.724	0.00	0.00	0.000	1.079	91.0	32	57.0	90.6	1405	1	100.0	60
06/01/18	8:00 p	88.2	90.9	88.2	67	75.9	0.0	SSW	0.00	5.0	SSW	88.2	98.3	98.3	29.728	0.00	0.00	0.000	0.967	88.1	32	54.5	86.3	1405	1	100.0	60
06/01/18	9:00 p	85.2	88.2	85.2	72	75.1	0.0	---	0.00	0.0	---	85.2	94.1	94.1	29.736	0.00	0.00	0.000	0.842	87.8	33	55.1	86.2	1405	1	100.0	60
06/01/18	10:00 p	82.4	85.1	82.4	77	74.5	0.0	---	0.00	0.0	---	82.4	89.1	89.1	29.754	0.00	0.00	0.000	0.725	88.1	37	58.6	87.5	1405	1	100.0	60
06/01/18	11:00 p	80.5	82.4	80.5	81	74.1	0.0	---	0.00	0.0	---	80.5	85.7	85.7	29.759	0.00	0.00	0.000	0.646	84.9	35	54.2	84.1	1405	1	100.0	60
06/02/18	12:00 a	79.0	80.5	79.0	84	73.7	0.0	---	0.00	0.0	---	79.0	83.5	83.5	29.764	0.00	0.00	0.000	0.583	88.6	32	55.0	87.0	1405	1	100.0	60

SATURDAY		Temp	Hi	Low	Out	Dew	Wind	Wind	Wind	Hi	Hi	Wind	Heat	THW			Rain	Heat	Cool	In 	In	In 	In 	Wind	Wind	ISS 	Arc.
Date		Time	Out	Temp	Temp	Hum	Pt.	Speed	Dir	Run	Speed	Dir	Chill	Index	Index	Bar  	Rain	Rate	D-D 	D-D 	Temp	Hum	Dew	Heat	Samp	Tx 	Recept	Int.
06/02/18	1:00 a	78.4	79.0	78.4	82	72.4	0.0	SSW	0.00	11.0	SSW	78.4	82.3	82.3	29.747	0.00	0.00	0.000	0.558	87.7	32	54.2	86.0	1404	1	100.0	60
06/02/18	2:00 a	76.7	78.4	76.7	81	70.4	0.0	SSW	0.00	4.0	SSW	76.7	79.8	79.8	29.727	0.00	0.00	0.000	0.487	88.4	32	54.8	86.7	1404	1	100.0	60
06/02/18	3:00 a	75.3	76.6	75.3	83	69.8	0.0	---	0.00	0.0	---	75.3	78.2	78.2	29.731	0.00	0.00	0.000	0.429	88.5	33	55.7	87.1	1405	1	100.0	60
06/02/18	4:00 a	74.3	75.3	74.3	85	69.5	0.0	---	0.00	0.0	---	74.3	76.7	76.7	29.734	0.00	0.00	0.000	0.388	88.2	33	55.5	86.6	1405	1	100.0	60
06/02/18	5:00 a	73.0	74.3	73.0	88	69.2	0.0	---	0.00	0.0	---	73.0	75.3	75.3	29.717	0.00	0.00	0.000	0.333	87.9	34	56.0	86.5	1405	1	100.0	60
06/02/18	6:00 a	72.0	73.1	72.0	91	69.2	0.0	---	0.00	0.0	---	72.0	74.3	74.3	29.717	0.00	0.00	0.000	0.292	87.9	34	56.0	86.5	1405	1	100.0	60
06/02/18	7:00 a	73.1	73.1	71.8	94	71.3	0.0	---	0.00	0.0	---	73.1	75.9	75.9	29.725	0.00	0.00	0.000	0.337	87.1	33	54.5	85.9	1405	1	100.0	60
06/02/18	8:00 a	78.7	78.7	73.1	84	73.5	0.0	SSW	0.00	6.0	SSW	78.7	83.1	83.1	29.738	0.00	0.00	0.000	0.571	82.8	34	51.6	81.4	1405	1	100.0	60
06/02/18	9:00 a	83.2	83.2	78.7	77	75.2	0.0	SSW	0.00	12.0	SSW	83.2	91.3	91.3	29.732	0.00	0.00	0.000	0.758	82.4	35	52.0	81.1	1405	1	100.0	60
06/02/18	10:00 a	85.4	85.4	83.2	72	75.3	0.0	SW	0.00	7.0	SW	85.4	94.5	94.5	29.726	0.00	0.00	0.000	0.850	82.6	36	52.9	81.5	1405	1	100.0	60
06/02/18	11:00 a	86.3	86.3	85.4	73	76.6	0.0	SSW	0.00	11.0	W	86.3	97.1	97.1	29.726	0.00	0.00	0.000	0.888	85.2	38	56.7	85.0	1405	1	100.0	60
06/02/18	12:00 p	88.0	88.0	86.3	66	75.2	0.0	SSW	0.00	12.0	S	88.0	97.2	97.2	29.723	0.00	0.00	0.000	0.958	85.2	35	54.5	84.4	1405	1	100.0	60
06/02/18	1:00 p	90.1	90.1	88.0	63	75.8	0.0	WSW	0.00	12.0	SW	90.1	101.9	101.9	29.708	0.00	0.00	0.000	1.046	89.0	35	57.8	88.3	1405	1	100.0	60
06/02/18	2:00 p	90.2	90.7	90.1	60	74.4	0.0	WSW	0.00	12.0	W	90.2	100.3	100.3	29.692	0.00	0.00	0.000	1.050	87.6	33	54.9	86.1	1405	1	100.0	60
06/02/18	3:00 p	90.8	90.8	90.0	62	76.0	0.0	S	0.00	6.0	SE	90.8	103.1	103.1	29.679	0.00	0.00	0.000	1.075	90.4	34	58.2	90.2	1405	1	100.0	60
06/02/18	4:00 p	88.3	91.1	88.3	66	75.5	0.0	W	0.00	14.0	NNW	88.3	98.1	98.1	29.668	0.00	0.00	0.000	0.971	89.0	34	57.0	88.0	1405	1	100.0	60
06/02/18	5:00 p	87.8	88.8	87.1	65	74.6	0.0	NE	0.00	10.0	NNE	87.8	96.6	96.6	29.649	0.00	0.00	0.000	0.950	91.6	33	58.4	91.6	1404	1	100.0	60
06/02/18	6:00 p	81.2	87.8	81.2	78	73.7	0.0	NE	0.00	19.0	W	81.2	86.5	86.5	29.685	0.00	0.00	0.000	0.675	89.1	34	57.1	88.2	1405	1	100.0	60
06/02/18	7:00 p	78.2	81.2	78.2	90	75.0	0.0	NNE	0.00	5.0	ENE	78.2	83.2	83.2	29.698	0.01	0.00	0.000	0.550	87.2	34	55.4	86.1	1405	1	100.0	60
06/02/18	8:00 p	75.5	78.3	75.5	90	72.4	0.0	ENE	0.00	10.0	NE	75.5	79.0	79.0	29.696	0.00	0.00	0.000	0.438	87.8	35	56.7	86.7	1405	1	100.0	60
06/02/18	9:00 p	74.8	75.5	74.8	92	72.3	0.0	NE	0.00	6.0	NE	74.8	78.1	78.1	29.688	0.00	0.00	0.000	0.408	88.8	32	55.1	87.2	1405	1	100.0	60
06/02/18	10:00 p	74.3	74.8	74.3	93	72.1	0.0	---	0.00	0.0	---	74.3	77.3	77.3	29.719	0.00	0.00	0.000	0.388	89.7	31	55.0	88.6	1405	1	100.0	60
06/02/18	11:00 p	73.5	74.3	73.5	94	71.7	0.0	---	0.00	0.0	---	73.5	76.3	76.3	29.703	0.00	0.00	0.000	0.354	88.1	31	53.7	86.1	1405	1	100.0	60
06/03/18	12:00 a	73.4	73.6	73.4	95	71.9	0.0	---	0.00	0.0	---	73.4	76.3	76.3	29.709	0.00	0.00	0.000	0.350	88.0	32	54.4	86.1	1405	1	100.0	60

SUNDAY			Temp	Hi	Low	Out	Dew	Wind	Wind	Wind	Hi	Hi	Wind	Heat	THW			Rain	Heat	Cool	In 	In	In 	In 	Wind	Wind	ISS 	Arc.
Date		Time	Out	Temp	Temp	Hum	Pt.	Speed	Dir	Run	Speed	Dir	Chill	Index	Index	Bar  	Rain	Rate	D-D 	D-D 	Temp	Hum	Dew	Heat	Samp	Tx 	Recept	Int.
06/03/18	1:00 a	73.7	73.7	73.4	95	72.2	0.0	---	0.00	0.0	---	73.7	76.6	76.6	29.715	0.00	0.00	0.000	0.362	86.0	31	51.8	84.5	1404	1	100.0	60
06/03/18	2:00 a	73.5	73.8	73.5	95	72.0	0.0	---	0.00	0.0	---	73.5	76.4	76.4	29.704	0.00	0.00	0.000	0.354	86.5	32	53.1	85.2	1405	1	100.0	60
06/03/18	3:00 a	72.7	73.5	72.6	96	71.5	0.0	---	0.00	0.0	---	72.7	75.7	75.7	29.699	0.00	0.00	0.000	0.321	86.4	33	53.9	85.3	1405	1	100.0	60
06/03/18	4:00 a	72.6	72.7	72.6	97	71.7	0.0	---	0.00	0.0	---	72.6	75.7	75.7	29.699	0.00	0.00	0.000	0.317	86.2	33	53.7	85.1	1405	1	100.0	60
06/03/18	5:00 a	72.4	72.6	72.4	97	71.5	0.0	---	0.00	0.0	---	72.4	75.5	75.5	29.704	0.00	0.00	0.000	0.308	86.1	34	54.5	85.2	1404	1	100.0	60
06/03/18	6:00 a	72.4	72.5	72.4	98	71.8	0.0	---	0.00	0.0	---	72.4	75.7	75.7	29.709	0.00	0.00	0.000	0.308	86.1	34	54.5	85.2	1405	1	100.0	60
06/03/18	7:00 a	72.4	72.5	72.2	98	71.8	0.0	---	0.00	0.0	---	72.4	75.7	75.7	29.725	0.00	0.00	0.000	0.308	86.3	33	53.8	85.2	1405	1	100.0	60
06/03/18	8:00 a	73.2	73.2	72.4	98	72.6	0.0	---	0.00	0.0	---	73.2	76.5	76.5	29.733	0.00	0.00	0.000	0.342	84.3	32	51.2	83.0	1405	1	100.0	60
06/03/18	9:00 a	75.2	75.2	73.2	96	74.0	0.0	SW	0.00	4.0	SW	75.2	79.0	79.0	29.726	0.00	0.00	0.000	0.425	84.8	33	52.5	83.6	1405	1	100.0	60
06/03/18	10:00 a	78.0	78.2	75.2	87	73.8	0.0	SSE	0.00	12.0	S	78.0	82.4	82.4	29.719	0.00	0.00	0.000	0.542	83.9	33	51.7	82.8	1405	1	100.0	60
06/03/18	11:00 a	77.1	78.0	77.1	91	74.3	0.0	---	0.00	0.0	---	77.1	81.3	81.3	29.729	0.00	0.00	0.000	0.504	85.6	33	53.2	84.5	1405	1	100.0	60
06/03/18	12:00 p	77.9	78.1	76.9	92	75.4	0.0	SSE	0.00	5.0	N	77.9	82.9	82.9	29.731	0.08	0.27	0.000	0.538	86.0	34	54.4	85.1	1405	1	100.0	60
06/03/18	1:00 p	78.6	78.6	77.2	93	76.4	0.0	SW	0.00	6.0	NW	78.6	84.5	84.5	29.728	0.00	0.00	0.000	0.567	85.3	33	52.9	84.1	1405	1	100.0	60
06/03/18	2:00 p	81.9	81.9	78.6	84	76.6	0.0	WSW	0.00	6.0	SW	81.9	89.8	89.8	29.704	0.00	0.00	0.000	0.704	87.8	34	55.9	86.5	1405	1	100.0	60
06/03/18	3:00 p	78.1	81.9	78.1	91	75.3	0.0	S	0.00	4.0	S	78.1	83.1	83.1	29.696	0.06	0.70	0.000	0.546	88.9	34	56.9	87.9	1405	1	100.0	60
06/03/18	4:00 p	74.8	78.1	74.8	92	72.3	0.0	W	0.00	11.0	W	74.8	78.1	78.1	29.701	0.34	3.33	0.000	0.408	86.6	33	54.1	85.4	1405	1	100.0	60
06/03/18	5:00 p	73.6	74.8	73.4	97	72.7	0.0	---	0.00	0.0	---	73.6	76.8	76.8	29.700	0.01	0.30	0.000	0.358	87.7	33	55.0	86.2	1405	1	100.0	60
06/03/18	6:00 p	74.4	74.6	73.6	97	73.5	0.0	---	0.00	0.0	---	74.4	77.8	77.8	29.692	0.02	0.00	0.000	0.392	87.9	34	56.0	86.5	1405	1	100.0	60
06/03/18	7:00 p	71.2	74.4	71.2	94	69.4	0.0	WNW	0.00	17.0	W	71.2	73.8	73.8	29.715	0.00	0.00	0.000	0.258	84.4	32	51.3	83.1	1405	1	100.0	60
06/03/18	8:00 p	68.2	71.2	68.2	95	66.7	0.0	WNW	0.00	18.0	NW	68.2	70.2	70.2	29.726	0.00	0.00	0.000	0.133	85.9	33	53.5	84.8	1404	1	100.0	60
06/03/18	9:00 p	66.6	68.1	66.6	97	65.7	0.0	NW	0.00	14.0	NNW	66.6	68.2	68.2	29.739	0.00	0.00	0.000	0.067	84.2	32	51.1	82.9	1405	1	100.0	60
06/03/18	10:00 p	65.4	66.6	65.4	95	63.9	0.0	WNW	0.00	15.0	WNW	65.4	66.7	66.7	29.762	0.00	0.00	0.000	0.017	84.5	34	53.0	83.6	1405	1	100.0	60
06/03/18	11:00 p	64.9	65.4	64.9	94	63.1	0.0	WNW	0.00	21.0	WNW	64.9	66.0	66.0	29.774	0.00	0.00	0.004	0.000	84.6	35	53.9	83.8	1405	1	100.0	60
06/04/18	12:00 a	64.6	64.9	64.5	95	63.1	0.0	NW	0.00	15.0	NW	64.6	65.7	65.7	29.783	0.00	0.00	0.017	0.000	82.9	34	51.6	81.5	1405	1	100.0	60

MONDAY			Temp	Hi	Low	Out	Dew	Wind	Wind	Wind	Hi	Hi	Wind	Heat	THW			Rain	Heat	Cool	In 	In	In 	In 	Wind	Wind	ISS 	Arc.
Date		Time	Out	Temp	Temp	Hum	Pt.	Speed	Dir	Run	Speed	Dir	Chill	Index	Index	Bar  	Rain	Rate	D-D 	D-D 	Temp	Hum	Dew	Heat	Samp	Tx 	Recept	Int.
06/04/18	1:00 a	64.3	64.7	64.3	93	62.2	0.0	NW	0.00	16.0	WNW	64.3	65.3	65.3	29.762	0.00	0.00	0.029	0.000	83.4	35	52.9	82.4	1404	1	100.0	60
06/04/18	2:00 a	64.0	64.4	64.0	94	62.2	0.0	WNW	0.00	20.0	WNW	64.0	65.0	65.0	29.760	0.00	0.00	0.042	0.000	83.3	36	53.6	82.4	1405	1	100.0	60
06/04/18	3:00 a	63.2	64.0	63.2	94	61.4	0.0	WNW	0.00	16.0	WNW	63.2	64.0	64.0	29.769	0.00	0.00	0.075	0.000	83.2	36	53.5	82.3	1405	1	100.0	60
06/04/18	4:00 a	62.4	63.2	62.4	94	60.7	0.0	NW	0.00	18.0	W	62.4	63.1	63.1	29.767	0.00	0.00	0.108	0.000	83.0	36	53.3	82.0	1405	1	100.0	60
06/04/18	5:00 a	62.0	62.4	62.0	94	60.3	0.0	WNW	0.00	15.0	NW	62.0	62.7	62.7	29.779	0.00	0.00	0.125	0.000	82.8	37	53.9	81.9	1405	1	100.0	60
06/04/18	6:00 a	61.3	62.0	61.3	94	59.6	0.0	SW	0.00	13.0	W	61.3	61.8	61.8	29.798	0.00	0.00	0.154	0.000	82.4	38	54.2	81.6	1405	1	100.0	60
06/04/18	7:00 a	61.2	61.3	60.9	95	59.8	0.0	WNW	0.00	15.0	WSW	61.2	61.7	61.7	29.812	0.00	0.00	0.158	0.000	82.4	39	55.0	81.7	1405	1	100.0	60
06/04/18	8:00 a	62.2	62.2	61.2	93	60.2	0.0	WNW	0.00	10.0	WNW	62.2	62.8	62.8	29.814	0.00	0.00	0.117	0.000	82.5	39	55.0	81.9	1403	1	100.0	60
06/04/18	9:00 a	66.3	66.3	62.2	88	62.6	0.0	NW	0.00	18.0	NNW	66.3	67.6	67.6	29.816	0.00	0.00	0.000	0.054	83.2	39	55.7	82.8	1405	1	100.0	60
06/04/18	10:00 a	68.6	68.6	66.3	84	63.6	0.0	NW	0.00	18.0	NW	68.6	70.2	70.2	29.806	0.00	0.00	0.000	0.150	83.9	39	56.3	83.9	1405	1	100.0	60
06/04/18	11:00 a	71.0	71.0	68.6	81	64.9	0.0	NW	0.00	12.0	WNW	71.0	72.4	72.4	29.802	0.00	0.00	0.000	0.250	84.1	36	54.3	83.6	1405	1	100.0	60
06/04/18	12:00 p	73.7	73.7	71.0	77	66.0	0.0	ENE	0.00	6.0	WSW	73.7	75.5	75.5	29.800	0.00	0.00	0.000	0.362	85.7	36	55.7	85.1	1405	1	100.0	60
06/04/18	1:00 p	76.0	76.0	73.7	72	66.3	0.0	WNW	0.00	7.0	NE	76.0	78.0	78.0	29.785	0.00	0.00	0.000	0.458	87.7	37	58.2	87.1	1405	1	100.0	60
06/04/18	2:00 p	78.7	78.7	76.0	63	65.0	0.0	ENE	0.00	7.0	ENE	78.7	80.1	80.1	29.772	0.00	0.00	0.000	0.571	87.5	35	56.5	86.5	1405	1	100.0	60
06/04/18	3:00 p	81.0	81.0	78.7	62	66.8	0.0	WNW	0.00	5.0	WNW	81.0	83.0	83.0	29.765	0.00	0.00	0.000	0.667	90.6	37	60.8	91.3	1405	1	100.0	60
06/04/18	4:00 p	81.9	81.9	80.9	59	66.2	0.0	ENE	0.00	4.0	ENE	81.9	83.9	83.9	29.752	0.00	0.00	0.000	0.704	89.2	32	55.5	87.9	1405	1	100.0	60
06/04/18	5:00 p	83.0	83.0	81.9	56	65.7	0.0	WNW	0.00	6.0	SW	83.0	85.1	85.1	29.739	0.00	0.00	0.000	0.750	92.6	35	61.0	93.4	1405	1	100.0	60
06/04/18	6:00 p	83.6	83.6	83.0	51	63.6	0.0	SW	0.00	11.0	S	83.6	85.3	85.3	29.732	0.00	0.00	0.000	0.775	90.8	29	54.2	89.6	1405	1	100.0	60
06/04/18	7:00 p	82.8	83.7	82.8	58	66.5	0.0	SW	0.00	4.0	SW	82.8	85.1	85.1	29.740	0.00	0.00	0.000	0.742	92.7	33	59.4	93.1	1405	1	100.0	60
06/04/18	8:00 p	81.1	82.8	81.1	62	66.8	0.0	NNE	0.00	4.0	ENE	81.1	83.2	83.2	29.752	0.00	0.00	0.000	0.671	90.5	30	54.8	89.6	1405	1	100.0	60
06/04/18	9:00 p	75.0	81.1	75.0	75	66.5	0.0	---	0.00	0.0	---	75.0	77.1	77.1	29.771	0.00	0.00	0.000	0.417	90.5	33	57.5	90.2	1405	1	100.0	60
06/04/18	10:00 p	71.4	75.0	71.4	80	64.9	0.0	---	0.00	0.0	---	71.4	72.7	72.7	29.788	0.00	0.00	0.000	0.267	89.8	32	56.0	89.0	1405	1	100.0	60
06/04/18	11:00 p	69.6	71.4	69.6	86	65.2	0.0	SSE	0.00	4.0	SSE	69.6	71.3	71.3	29.784	0.00	0.00	0.000	0.192	87.9	33	55.2	86.3	1404	1	100.0	60
06/05/18	12:00 a	68.5	69.6	68.5	89	65.1	0.0	---	0.00	0.0	---	68.5	70.3	70.3	29.770	0.00	0.00	0.000	0.146	87.2	35	56.2	86.3	1406	1	100.0	60

TUESDAY			Temp	Hi	Low	Out	Dew	Wind	Wind	Wind	Hi	Hi	Wind	Heat	THW			Rain	Heat	Cool	In 	In	In 	In 	Wind	Wind	ISS 	Arc.
Date		Time	Out	Temp	Temp	Hum	Pt.	Speed	Dir	Run	Speed	Dir	Chill	Index	Index	Bar  	Rain	Rate	D-D 	D-D 	Temp	Hum	Dew	Heat	Samp	Tx 	Recept	Int.
06/05/18	1:00 a	68.9	68.9	68.3	92	66.5	0.0	---	0.00	0.0	---	68.9	71.0	71.0	29.776	0.00	0.00	0.000	0.163	86.8	37	57.4	86.5	1402	1	100.0	60
06/05/18	2:00 a	69.7	69.7	68.8	89	66.3	0.0	ENE	0.00	4.0	ENE	69.7	71.6	71.6	29.777	0.00	0.00	0.000	0.196	86.6	38	58.0	86.5	1405	1	100.0	60
06/05/18	3:00 a	68.8	69.9	68.8	88	65.1	0.0	---	0.00	0.0	---	68.8	70.7	70.7	29.775	0.00	0.00	0.000	0.158	86.2	38	57.6	86.1	1405	1	100.0	60
06/05/18	4:00 a	67.0	68.8	67.0	90	64.0	0.0	---	0.00	0.0	---	67.0	68.5	68.5	29.787	0.00	0.00	0.000	0.083	85.5	39	57.7	85.5	1405	1	100.0	60
06/05/18	5:00 a	66.1	67.0	66.1	91	63.4	0.0	---	0.00	0.0	---	66.1	67.4	67.4	29.794	0.00	0.00	0.000	0.046	83.5	38	55.2	83.1	1405	1	100.0	60
06/05/18	6:00 a	64.6	66.1	64.6	92	62.2	0.0	---	0.00	0.0	---	64.6	65.6	65.6	29.811	0.00	0.00	0.017	0.000	84.4	38	56.0	84.2	1405	1	100.0	60
06/05/18	7:00 a	71.4	71.4	64.3	70	61.1	0.0	---	0.00	0.0	---	71.4	71.9	71.9	29.816	0.00	0.00	0.000	0.267	84.2	39	56.6	84.3	1405	1	100.0	60
06/05/18	8:00 a	80.1	80.1	71.5	52	60.9	0.0	---	0.00	0.0	---	80.1	80.5	80.5	29.820	0.00	0.00	0.000	0.629	84.4	39	56.7	84.4	1405	1	100.0	60
06/05/18	9:00 a	79.8	80.3	79.4	49	58.9	0.0	ENE	0.00	11.0	E	79.8	79.8	79.8	29.830	0.00	0.00	0.000	0.617	85.5	39	57.7	85.5	1405	1	100.0	60
06/05/18	10:00 a	79.1	80.3	79.0	50	58.9	0.0	ENE	0.00	7.0	E	79.1	79.3	79.3	29.836	0.00	0.00	0.000	0.587	84.5	34	53.0	83.6	1405	1	100.0	60
06/05/18	11:00 a	79.1	79.3	78.9	44	55.3	0.0	NE	0.00	6.0	ENE	79.1	78.7	78.7	29.825	0.00	0.00	0.000	0.587	85.1	36	55.1	84.5	1404	1	100.0	60
06/05/18	12:00 p	79.8	79.8	79.1	44	55.9	0.0	ENE	0.00	10.0	ENE	79.8	79.3	79.3	29.818	0.00	0.00	0.000	0.617	81.5	35	51.2	80.1	1405	1	100.0	60
06/05/18	1:00 p	80.9	80.9	79.8	45	57.6	0.0	WSW	0.00	6.0	WSW	80.9	80.5	80.5	29.804	0.00	0.00	0.000	0.663	83.5	38	55.2	83.1	1405	1	100.0	60
06/05/18	2:00 p	82.2	82.2	80.9	47	60.0	0.0	SE	0.00	5.0	S	82.2	82.5	82.5	29.769	0.00	0.00	0.000	0.717	83.2	35	52.7	82.1	1405	1	100.0	60
06/05/18	3:00 p	83.7	83.7	82.1	44	59.5	0.0	S	0.00	7.0	S	83.7	84.5	84.5	29.760	0.00	0.00	0.000	0.779	86.3	38	57.7	86.2	1405	1	100.0	60
06/05/18	4:00 p	84.7	84.7	83.6	47	62.2	0.0	SW	0.00	11.0	SSW	84.7	86.0	86.0	29.741	0.00	0.00	0.000	0.821	86.3	36	56.2	85.8	1405	1	100.0	60
06/05/18	5:00 p	84.7	84.8	84.6	47	62.2	0.0	WSW	0.00	11.0	NNW	84.7	86.0	86.0	29.732	0.00	0.00	0.000	0.821	89.5	37	59.8	89.7	1405	1	100.0	60
06/05/18	6:00 p	84.1	84.8	84.1	47	61.7	0.0	SSW	0.00	12.0	W	84.1	85.5	85.5	29.734	0.00	0.00	0.000	0.796	90.9	34	58.7	90.9	1405	1	100.0	60
06/05/18	7:00 p	82.6	84.1	82.6	49	61.5	0.0	SSW	0.00	11.0	SW	82.6	83.4	83.4	29.736	0.00	0.00	0.000	0.733	88.4	32	54.8	86.7	1405	1	100.0	60
06/05/18	8:00 p	79.3	82.6	79.3	54	61.2	0.0	WSW	0.00	7.0	SSW	79.3	79.8	79.8	29.734	0.00	0.00	0.000	0.596	88.4	35	57.3	87.4	1405	1	100.0	60
06/05/18	9:00 p	75.3	79.2	75.3	61	60.9	0.0	SSW	0.00	5.0	SSW	75.3	76.2	76.2	29.728	0.00	0.00	0.000	0.429	88.0	36	57.7	87.1	1405	1	100.0	60
06/05/18	10:00 p	73.3	75.3	73.3	64	60.4	0.0	---	0.00	0.0	---	73.3	74.1	74.1	29.744	0.00	0.00	0.000	0.346	86.0	34	54.4	85.1	1405	1	100.0	60
06/05/18	11:00 p	71.8	73.3	71.8	70	61.5	0.0	---	0.00	0.0	---	71.8	72.4	72.4	29.756	0.00	0.00	0.000	0.283	85.4	35	54.6	84.6	1405	1	100.0	60
06/06/18	12:00 a	70.6	71.9	70.6	73	61.5	0.0	---	0.00	0.0	---	70.6	71.1	71.1	29.758	0.00	0.00	0.000	0.233	84.4	37	55.3	84.0	1405	1	100.0	60

WEDNESDAY		Temp	Hi	Low	Out	Dew	Wind	Wind	Wind	Hi	Hi	Wind	Heat	THW			Rain	Heat	Cool	In 	In	In 	In 	Wind	Wind	ISS 	Arc.
Date		Time	Out	Temp	Temp	Hum	Pt.	Speed	Dir	Run	Speed	Dir	Chill	Index	Index	Bar  	Rain	Rate	D-D 	D-D 	Temp	Hum	Dew	Heat	Samp	Tx 	Recept	Int.
06/06/18	1:00 a	69.6	70.6	69.6	76	61.7	0.0	---	0.00	0.0	---	69.6	70.5	70.5	29.744	0.00	0.00	0.000	0.192	81.8	36	52.2	80.6	1403	1	100.0	60
06/06/18	2:00 a	68.5	69.6	68.5	79	61.7	0.0	---	0.00	0.0	---	68.5	69.8	69.8	29.737	0.00	0.00	0.000	0.146	82.4	36	52.8	81.3	1406	1	100.0	60
06/06/18	3:00 a	67.5	68.5	67.5	83	62.2	0.0	---	0.00	0.0	---	67.5	68.8	68.8	29.739	0.00	0.00	0.000	0.104	82.4	37	53.5	81.4	1404	1	100.0	60
06/06/18	4:00 a	66.7	67.6	66.7	85	62.0	0.0	---	0.00	0.0	---	66.7	67.9	67.9	29.728	0.00	0.00	0.000	0.071	82.0	37	53.2	80.9	1405	1	100.0	60
06/06/18	5:00 a	66.2	66.7	66.2	86	61.9	0.0	---	0.00	0.0	---	66.2	67.3	67.3	29.730	0.00	0.00	0.000	0.050	81.3	38	53.3	80.2	1405	1	100.0	60
06/06/18	6:00 a	65.4	66.2	65.3	88	61.8	0.0	---	0.00	0.0	---	65.4	66.4	66.4	29.739	0.00	0.00	0.000	0.017	85.0	35	54.3	84.2	1405	1	100.0	60
06/06/18	7:00 a	66.2	66.2	65.2	92	63.8	0.0	---	0.00	0.0	---	66.2	67.6	67.6	29.751	0.00	0.00	0.000	0.050	85.7	35	54.9	85.0	1405	1	100.0	60
06/06/18	8:00 a	70.8	70.8	66.2	82	65.0	0.0	NE	0.00	4.0	NE	70.8	72.3	72.3	29.766	0.00	0.00	0.000	0.242	84.1	34	52.7	83.2	1405	1	100.0	60
06/06/18	9:00 a	77.9	77.9	70.9	66	65.6	0.0	ENE	0.00	12.0	ENE	77.9	79.4	79.4	29.772	0.00	0.00	0.000	0.538	86.2	33	53.7	85.1	1405	1	100.0	60
06/06/18	10:00 a	78.4	78.5	77.9	61	63.8	0.0	NE	0.00	7.0	NE	78.4	79.5	79.5	29.777	0.00	0.00	0.000	0.558	86.5	33	54.0	85.4	1405	1	100.0	60
06/06/18	11:00 a	79.0	79.1	78.4	63	65.3	0.0	ENE	0.00	12.0	E	79.0	80.5	80.5	29.791	0.00	0.00	0.000	0.583	87.4	30	52.2	85.4	1405	1	100.0	60
06/06/18	12:00 p	78.2	79.1	78.2	66	65.9	0.0	NE	0.00	11.0	NE	78.2	79.8	79.8	29.805	0.00	0.00	0.000	0.550	88.9	34	56.9	87.9	1405	1	100.0	60
06/06/18	1:00 p	77.6	78.2	77.6	67	65.8	0.0	NE	0.00	11.0	NE	77.6	79.2	79.2	29.817	0.00	0.00	0.000	0.525	89.3	27	50.9	86.9	1405	1	100.0	60
06/06/18	2:00 p	77.9	77.9	77.1	67	66.1	0.0	NE	0.00	18.0	NE	77.9	79.5	79.5	29.816	0.00	0.00	0.000	0.538	90.9	34	58.7	90.9	1405	1	100.0	60
06/06/18	3:00 p	77.6	78.2	77.3	65	64.9	0.0	ENE	0.00	17.0	NNE	77.6	79.0	79.0	29.823	0.00	0.00	0.000	0.525	91.1	29	54.4	90.0	1404	1	100.0	60
06/06/18	4:00 p	76.8	77.8	76.8	59	61.4	0.0	ENE	0.00	17.0	ENE	76.8	77.5	77.5	29.832	0.00	0.00	0.000	0.492	92.5	34	60.0	93.0	1405	1	100.0	60
06/06/18	5:00 p	77.6	77.6	76.6	58	61.7	0.0	NE	0.00	11.0	NE	77.6	78.3	78.3	29.843	0.00	0.00	0.000	0.525	93.2	27	54.3	91.9	1405	1	100.0	60
06/06/18	6:00 p	77.1	77.6	76.9	58	61.2	0.0	NE	0.00	7.0	NE	77.1	77.7	77.7	29.855	0.00	0.00	0.000	0.504	93.0	31	57.9	93.0	1405	1	100.0	60
06/06/18	7:00 p	76.0	77.1	76.0	59	60.6	0.0	NE	0.00	10.0	NE	76.0	76.6	76.6	29.876	0.00	0.00	0.000	0.458	89.7	30	54.1	88.4	1405	1	100.0	60
06/06/18	8:00 p	73.0	76.0	73.0	71	63.0	0.0	NE	0.00	10.0	NNE	73.0	74.2	74.2	29.894	0.00	0.00	0.000	0.333	91.0	31	56.2	90.4	1405	1	100.0	60
06/06/18	9:00 p	69.4	73.0	69.4	80	63.0	0.0	NE	0.00	7.0	NE	69.4	70.7	70.7	29.909	0.00	0.00	0.000	0.183	90.7	32	56.8	90.2	1405	1	100.0	60
06/06/18	10:00 p	67.5	69.4	67.5	87	63.5	0.0	NE	0.00	6.0	NE	67.5	69.0	69.0	29.937	0.00	0.00	0.000	0.104	88.5	30	53.1	86.3	1405	1	100.0	60
06/06/18	11:00 p	66.4	67.5	66.4	87	62.4	0.0	NE	0.00	4.0	NE	66.4	67.6	67.6	29.955	0.00	0.00	0.000	0.058	85.8	30	50.8	84.1	1405	1	100.0	60
06/07/18	12:00 a	65.3	66.4	65.3	91	62.6	0.0	---	0.00	0.0	---	65.3	66.4	66.4	29.958	0.00	0.00	0.000	0.013	85.8	31	51.7	84.3	1405	1	100.0	60

THURSDAY		Temp	Hi	Low	Out	Dew	Wind	Wind	Wind	Hi	Hi	Wind	Heat	THW			Rain	Heat	Cool	In 	In	In 	In 	Wind	Wind	ISS 	Arc.
Date		Time	Out	Temp	Temp	Hum	Pt.	Speed	Dir	Run	Speed	Dir	Chill	Index	Index	Bar  	Rain	Rate	D-D 	D-D 	Temp	Hum	Dew	Heat	Samp	Tx 	Recept	Int.
06/07/18	1:00 a	65.7	65.7	65.3	92	63.3	0.0	---	0.00	0.0	---	65.7	67.0	67.0	29.954	0.00	0.00	0.000	0.029	85.7	32	52.4	84.4	1404	1	100.0	60
06/07/18	2:00 a	65.4	65.8	65.4	94	63.6	0.0	E	0.00	5.0	ENE	65.4	66.6	66.6	29.958	0.00	0.00	0.000	0.017	85.1	33	52.8	83.9	1404	1	100.0	60
06/07/18	3:00 a	64.7	65.4	64.7	95	63.2	0.0	---	0.00	0.0	---	64.7	65.8	65.8	29.962	0.00	0.00	0.013	0.000	84.8	33	52.5	83.6	1405	1	100.0	60
06/07/18	4:00 a	64.7	64.8	64.6	95	63.2	0.0	---	0.00	0.0	---	64.7	65.8	65.8	29.984	0.00	0.00	0.013	0.000	84.8	33	52.5	83.6	1406	1	100.0	60
06/07/18	5:00 a	64.6	64.7	64.4	94	62.8	0.0	---	0.00	0.0	---	64.6	65.7	65.7	29.988	0.00	0.00	0.017	0.000	84.5	34	53.0	83.6	1404	1	100.0	60
06/07/18	6:00 a	64.1	64.6	64.1	95	62.6	0.0	---	0.00	0.0	---	64.1	65.1	65.1	30.009	0.00	0.00	0.038	0.000	84.0	34	52.6	83.1	1405	1	100.0	60
06/07/18	7:00 a	68.9	68.9	64.0	87	64.9	0.0	NNE	0.00	4.0	NNE	68.9	70.8	70.8	30.018	0.00	0.00	0.000	0.163	83.9	35	53.3	83.2	1405	1	100.0	60
06/07/18	8:00 a	71.4	72.9	68.9	78	64.2	0.0	---	0.00	0.0	---	71.4	72.6	72.6	30.045	0.00	0.00	0.000	0.267	84.1	36	54.3	83.6	1405	1	100.0	60
06/07/18	9:00 a	74.2	74.2	71.3	71	64.2	0.0	NE	0.00	7.0	ENE	74.2	75.9	75.9	30.055	0.00	0.00	0.000	0.383	85.6	35	54.8	84.9	1405	1	100.0	60
06/07/18	10:00 a	74.6	74.6	73.9	73	65.4	0.0	NE	0.00	7.0	NE	74.6	76.5	76.5	30.064	0.00	0.00	0.000	0.400	84.9	33	52.6	83.7	1405	1	100.0	60
06/07/18	11:00 a	76.3	76.3	74.6	65	63.7	0.0	NE	0.00	6.0	NE	76.3	77.5	77.5	30.084	0.00	0.00	0.000	0.471	82.6	38	54.4	81.8	1405	1	100.0	60
06/07/18	12:00 p	77.3	77.3	76.3	63	63.7	0.0	NE	0.00	7.0	NNE	77.3	78.4	78.4	30.089	0.00	0.00	0.000	0.513	83.5	34	52.2	82.4	1405	1	100.0	60
06/07/18	1:00 p	78.7	78.9	77.3	61	64.1	0.0	NE	0.00	5.0	NE	78.7	79.9	79.9	30.092	0.00	0.00	0.000	0.571	84.9	38	56.5	84.7	1405	1	100.0	60
06/07/18	2:00 p	78.8	79.1	78.2	59	63.3	0.0	ENE	0.00	6.0	NNE	78.8	79.8	79.8	30.074	0.00	0.00	0.000	0.575	86.0	31	51.8	84.5	1405	1	100.0	60
06/07/18	3:00 p	79.8	79.9	78.7	54	61.7	0.0	NE	0.00	10.0	NE	79.8	80.4	80.4	30.072	0.00	0.00	0.000	0.617	87.5	38	58.8	87.3	1405	1	100.0	60
06/07/18	4:00 p	79.4	79.8	79.2	54	61.3	0.0	NE	0.00	7.0	ENE	79.4	79.9	79.9	30.062	0.00	0.00	0.000	0.600	88.3	30	52.9	86.1	1405	1	100.0	60
06/07/18	5:00 p	79.9	80.0	79.4	53	61.2	0.0	NE	0.00	12.0	SE	79.9	80.4	80.4	30.054	0.00	0.00	0.000	0.621	89.1	36	58.7	88.8	1404	1	100.0	60
06/07/18	6:00 p	79.1	79.9	78.9	55	61.5	0.0	NE	0.00	11.0	NE	79.1	79.7	79.7	30.058	0.00	0.00	0.000	0.587	89.6	29	53.1	87.9	1405	1	100.0	60
06/07/18	7:00 p	77.0	79.1	77.0	59	61.6	0.0	NE	0.00	11.0	SSW	77.0	77.7	77.7	30.079	0.00	0.00	0.000	0.500	88.8	34	56.8	87.7	1405	1	100.0	60
06/07/18	8:00 p	73.7	77.0	73.7	67	62.1	0.0	S	0.00	5.0	S	73.7	74.9	74.9	30.088	0.00	0.00	0.000	0.362	89.3	30	53.8	87.6	1405	1	100.0	60
06/07/18	9:00 p	70.6	73.7	70.6	75	62.3	0.0	---	0.00	0.0	---	70.6	71.3	71.3	30.095	0.00	0.00	0.000	0.233	89.4	31	54.8	88.0	1405	1	100.0	60
06/07/18	10:00 p	68.4	70.6	68.4	82	62.7	0.0	---	0.00	0.0	---	68.4	69.9	69.9	30.119	0.00	0.00	0.000	0.142	86.8	31	52.5	85.2	1405	1	100.0	60
06/07/18	11:00 p	67.1	68.5	67.1	87	63.1	0.0	---	0.00	0.0	---	67.1	68.5	68.5	30.134	0.00	0.00	0.000	0.087	87.3	31	53.0	85.6	1405	1	100.0	60
06/08/18	12:00 a	66.2	67.1	66.2	89	62.9	0.0	SE	0.00	4.0	SE	66.2	67.5	67.5	30.137	0.00	0.00	0.000	0.050	86.3	31	52.1	84.8	1405	1	100.0	60

FRIDAY	 		Temp	Hi	Low	Out	Dew	Wind	Wind	Wind	Hi	Hi	Wind	Heat	THW			Rain	Heat	Cool	In 	In	In 	In 	Wind	Wind	ISS 	Arc.
Date		Time	Out	Temp	Temp	Hum	Pt.	Speed	Dir	Run	Speed	Dir	Chill	Index	Index	Bar  	Rain	Rate	D-D 	D-D 	Temp	Hum	Dew	Heat	Samp	Tx 	Recept	Int.
06/08/18	1:00 a	66.0	66.2	65.9	88	62.3	0.0	SSE	0.00	4.0	SSE	66.0	67.2	67.2	30.139	0.00	0.00	0.000	0.042	85.9	32	52.6	84.6	1404	1	100.0	60
06/08/18	2:00 a	65.1	66.0	65.1	88	61.5	0.0	---	0.00	4.0	SSE	65.1	66.0	66.0	30.137	0.00	0.00	0.000	0.004	85.6	33	53.2	84.5	1405	1	100.0	60
06/08/18	3:00 a	64.3	65.1	64.3	90	61.3	0.0	---	0.00	0.0	---	64.3	65.2	65.2	30.133	0.00	0.00	0.029	0.000	85.9	32	52.6	84.6	1405	1	100.0	60
06/08/18	4:00 a	63.2	64.3	63.2	91	60.5	0.0	---	0.00	0.0	---	63.2	63.9	63.9	30.131	0.00	0.00	0.075	0.000	85.5	33	53.1	84.4	1405	1	100.0	60
06/08/18	5:00 a	62.5	63.2	62.5	93	60.4	0.0	---	0.00	0.0	---	62.5	63.2	63.2	30.133	0.00	0.00	0.104	0.000	85.0	33	52.7	83.8	1404	1	100.0	60
06/08/18	6:00 a	62.3	62.6	62.3	94	60.6	0.0	---	0.00	0.0	---	62.3	63.0	63.0	30.147	0.00	0.00	0.113	0.000	84.8	34	53.3	83.8	1405	1	100.0	60
06/08/18	7:00 a	63.9	63.9	62.3	96	62.7	0.0	---	0.00	0.0	---	63.9	64.9	64.9	30.166	0.00	0.00	0.046	0.000	85.2	34	53.7	84.2	1405	1	100.0	60
06/08/18	8:00 a	71.7	71.7	63.9	90	68.6	0.0	N	0.00	5.0	N	71.7	73.9	73.9	30.177	0.00	0.00	0.000	0.279	85.0	34	53.5	84.0	1405	1	100.0	60
06/08/18	9:00 a	79.5	79.5	71.8	72	69.7	0.0	S	0.00	6.0	SSE	79.5	82.3	82.3	30.181	0.00	0.00	0.000	0.604	83.9	32	50.9	82.6	1405	1	100.0	60
06/08/18	10:00 a	82.4	82.4	79.5	67	70.3	0.0	---	0.00	0.0	---	82.4	86.4	86.4	30.181	0.00	0.00	0.000	0.725	84.9	33	52.6	83.7	1405	1	100.0	60
06/08/18	11:00 a	83.9	83.9	82.3	69	72.6	0.0	SW	0.00	6.0	WSW	83.9	90.3	90.3	30.187	0.00	0.00	0.000	0.788	87.1	34	55.3	86.1	1405	1	100.0	60
06/08/18	12:00 p	84.9	85.1	83.8	67	72.7	0.0	NE	0.00	7.0	NE	84.9	91.6	91.6	30.182	0.00	0.00	0.000	0.829	88.6	29	52.3	86.3	1405	1	100.0	60
06/08/18	1:00 p	86.2	86.8	84.9	63	72.1	0.0	SW	0.00	14.0	SE	86.2	93.1	93.1	30.161	0.00	0.00	0.000	0.883	90.2	34	58.0	90.0	1405	1	100.0	60
06/08/18	2:00 p	87.9	88.1	85.9	58	71.3	0.0	SSE	0.00	11.0	SSE	87.9	94.1	94.1	30.142	0.00	0.00	0.000	0.954	92.0	31	57.0	91.6	1405	1	100.0	60
06/08/18	3:00 p	87.5	88.0	86.9	66	74.7	0.0	SSE	0.00	10.0	SSE	87.5	96.6	96.6	30.128	0.00	0.00	0.000	0.938	92.4	31	57.4	92.2	1405	1	100.0	60
06/08/18	4:00 p	87.9	88.3	87.2	61	72.8	0.0	SE	0.00	10.0	SE	87.9	95.2	95.2	30.118	0.00	0.00	0.000	0.954	93.8	34	61.2	94.8	1405	1	100.0	60
06/08/18	5:00 p	88.0	88.8	87.8	58	71.4	0.0	SSE	0.00	13.0	ESE	88.0	94.2	94.2	30.107	0.00	0.00	0.000	0.958	93.6	29	56.6	93.1	1405	1	100.0	60
06/08/18	6:00 p	85.9	88.0	85.9	60	70.4	0.0	SSE	0.00	13.0	SE	85.9	91.3	91.3	30.108	0.00	0.00	0.000	0.871	94.8	30	58.5	95.0	1405	1	100.0	60
06/08/18	7:00 p	83.9	85.9	83.9	66	71.3	0.0	SE	0.00	11.0	S	83.9	89.3	89.3	30.106	0.00	0.00	0.000	0.788	92.7	31	57.6	92.6	1405	1	100.0	60
06/08/18	8:00 p	81.4	83.9	81.4	66	68.9	0.0	S	0.00	4.0	ESE	81.4	84.4	84.4	30.117	0.00	0.00	0.000	0.683	93.1	30	57.1	92.8	1404	1	100.0	60
06/08/18	9:00 p	78.6	81.4	78.6	73	69.2	0.0	SE	0.00	10.0	S	78.6	81.2	81.2	30.122	0.00	0.00	0.000	0.567	91.1	31	56.3	90.5	1405	1	100.0	60
06/08/18	10:00 p	76.7	78.6	76.7	78	69.3	0.0	SSE	0.00	4.0	SSE	76.7	79.5	79.5	30.139	0.00	0.00	0.000	0.487	91.4	31	56.5	90.9	1405	1	100.0	60
06/08/18	11:00 p	75.1	76.6	75.1	82	69.2	0.0	---	0.00	0.0	---	75.1	77.8	77.8	30.147	0.00	0.00	0.000	0.421	88.6	30	53.2	86.5	1405	1	100.0	60
06/09/18	12:00 a	73.9	75.1	73.9	85	69.1	0.0	SE	0.00	4.0	SE	73.9	76.1	76.1	30.149	0.00	0.00	0.000	0.371	88.4	32	54.8	86.7	1405	1	100.0	60

SATURDAY		Temp	Hi	Low	Out	Dew	Wind	Wind	Wind	Hi	Hi	Wind	Heat	THW			Rain	Heat	Cool	In 	In	In 	In 	Wind	Wind	ISS 	Arc.
Date		Time	Out	Temp	Temp	Hum	Pt.	Speed	Dir	Run	Speed	Dir	Chill	Index	Index	Bar  	Rain	Rate	D-D 	D-D 	Temp	Hum	Dew	Heat	Samp	Tx 	Recept	Int.
06/09/18	1:00 a	72.9	73.9	72.9	88	69.1	0.0	---	0.00	0.0	---	72.9	75.2	75.2	30.134	0.00	0.00	0.000	0.329	88.3	32	54.7	86.6	1404	1	100.0	60
06/09/18	2:00 a	72.1	72.9	72.1	90	69.0	0.0	---	0.00	0.0	---	72.1	74.3	74.3	30.132	0.00	0.00	0.000	0.296	87.9	33	55.2	86.3	1405	1	100.0	60
06/09/18	3:00 a	71.5	72.1	71.5	93	69.4	0.0	---	0.00	0.0	---	71.5	74.0	74.0	30.123	0.00	0.00	0.000	0.271	85.4	32	52.2	84.0	1405	1	100.0	60
06/09/18	4:00 a	71.2	71.5	71.2	95	69.7	0.0	SSE	0.00	4.0	SSE	71.2	73.9	73.9	30.114	0.00	0.00	0.000	0.258	85.8	33	53.4	84.7	1405	1	100.0	60
06/09/18	5:00 a	71.0	71.3	71.0	96	69.8	0.0	---	0.00	0.0	---	71.0	73.9	73.9	30.099	0.00	0.00	0.000	0.250	86.1	34	54.5	85.2	1405	1	100.0	60
06/09/18	6:00 a	70.6	71.0	70.5	96	69.4	0.0	---	0.00	0.0	---	70.6	73.4	73.4	30.107	0.00	0.00	0.000	0.233	85.6	31	51.5	84.1	1405	1	100.0	60
06/09/18	7:00 a	72.8	72.8	70.5	98	72.2	0.0	---	0.00	0.0	---	72.8	76.1	76.1	30.121	0.00	0.00	0.000	0.325	85.0	32	51.8	83.6	1405	1	100.0	60
06/09/18	8:00 a	79.0	79.0	72.8	89	75.5	0.0	SW	0.00	5.0	SW	79.0	84.5	84.5	30.122	0.00	0.00	0.000	0.583	84.5	32	51.4	83.2	1404	1	100.0	60
06/09/18	9:00 a	83.8	83.8	79.1	79	76.6	0.0	---	0.00	0.0	---	83.8	93.6	93.6	30.124	0.00	0.00	0.000	0.783	85.3	33	52.9	84.1	1405	1	100.0	60
06/09/18	10:00 a	86.0	86.1	83.8	72	75.9	0.0	SW	0.00	6.0	SW	86.0	96.0	96.0	30.120	0.00	0.00	0.000	0.875	86.0	31	51.8	84.5	1405	1	100.0	60
06/09/18	11:00 a	87.4	87.4	86.0	64	73.7	0.0	ESE	0.00	5.0	SSE	87.4	95.7	95.7	30.111	0.00	0.00	0.000	0.933	88.0	34	56.1	86.6	1405	1	100.0	60
06/09/18	12:00 p	88.3	88.3	87.4	68	76.4	0.0	SSE	0.00	11.0	ESE	88.3	99.1	99.1	30.101	0.00	0.00	0.000	0.971	89.7	29	53.2	88.1	1405	1	100.0	60
06/09/18	1:00 p	88.4	88.5	88.2	65	75.1	0.0	SE	0.00	12.0	SE	88.4	97.9	97.9	30.097	0.00	0.00	0.000	0.975	91.1	33	58.0	90.9	1405	1	100.0	60
06/09/18	2:00 p	90.5	90.5	88.4	61	75.2	0.0	S	0.00	11.0	S	90.5	101.7	101.7	30.069	0.00	0.00	0.000	1.063	92.4	27	53.6	90.9	1405	1	100.0	60
06/09/18	3:00 p	91.0	91.1	90.4	52	70.9	0.0	SSE	0.00	12.0	SSE	91.0	98.1	98.1	30.044	0.00	0.00	0.000	1.083	93.5	32	59.2	93.9	1405	1	100.0	60
06/09/18	4:00 p	90.8	91.3	90.8	55	72.4	0.0	SSE	0.00	15.0	ESE	90.8	99.2	99.2	30.010	0.00	0.00	0.000	1.075	94.8	26	54.6	93.7	1405	1	100.0	60
06/09/18	5:00 p	89.8	90.8	89.8	59	73.6	0.0	SSE	0.00	10.0	SSW	89.8	98.8	98.8	30.001	0.00	0.00	0.000	1.033	95.1	29	57.8	95.1	1405	1	100.0	60
06/09/18	6:00 p	89.2	89.9	89.2	63	75.0	0.0	SSE	0.00	13.0	SSE	89.2	99.3	99.3	29.996	0.00	0.00	0.000	1.008	95.8	26	55.4	95.0	1405	1	100.0	60
06/09/18	7:00 p	86.9	89.2	86.9	62	72.3	0.0	S	0.00	10.0	SSE	86.9	94.2	94.2	29.987	0.00	0.00	0.000	0.913	94.0	24	51.7	92.0	1405	1	100.0	60
06/09/18	8:00 p	84.3	86.9	84.3	63	70.3	0.0	SSE	0.00	11.0	SSW	84.3	89.1	89.1	30.009	0.00	0.00	0.000	0.804	93.9	26	53.8	92.5	1405	1	100.0	60
06/09/18	9:00 p	80.7	84.3	80.7	67	68.7	0.0	SSE	0.00	4.0	WNW	80.7	83.4	83.4	30.016	0.00	0.00	0.000	0.654	91.7	24	49.8	89.2	1405	1	100.0	60
06/09/18	10:00 p	78.2	80.7	78.2	75	69.6	0.0	SSE	0.00	6.0	SSE	78.2	80.9	80.9	30.028	0.00	0.00	0.000	0.550	91.1	31	56.3	90.5	1405	1	100.0	60
06/09/18	11:00 p	76.8	78.2	76.8	81	70.5	0.0	---	0.00	0.0	---	76.8	79.9	79.9	30.025	0.00	0.00	0.000	0.492	89.5	28	52.1	87.5	1405	1	100.0	60
06/10/18	12:00 a	76.0	76.8	76.0	87	71.8	0.0	---	0.00	0.0	---	76.0	79.3	79.3	30.022	0.00	0.00	0.000	0.458	89.3	32	55.6	88.1	1404	1	100.0	60

SUNDAY			Temp	Hi	Low	Out	Dew	Wind	Wind	Wind	Hi	Hi	Wind	Heat	THW			Rain	Heat	Cool	In 	In	In 	In 	Wind	Wind	ISS 	Arc.
Date		Time	Out	Temp	Temp	Hum	Pt.	Speed	Dir	Run	Speed	Dir	Chill	Index	Index	Bar  	Rain	Rate	D-D 	D-D 	Temp	Hum	Dew	Heat	Samp	Tx 	Recept	Int.
06/10/18	1:00 a	75.2	76.0	75.2	89	71.7	0.0	---	0.00	0.0	---	75.2	78.5	78.5	30.011	0.00	0.00	0.000	0.425	86.4	34	54.7	85.5	1403	1	100.0	60
06/10/18	2:00 a	73.9	75.2	73.9	91	71.1	0.0	---	0.00	0.0	---	73.9	76.4	76.4	29.997	0.00	0.00	0.000	0.371	86.5	35	55.6	85.8	1405	1	100.0	60
06/10/18	3:00 a	72.7	73.9	72.7	92	70.2	0.0	---	0.00	0.0	---	72.7	75.3	75.3	29.976	0.00	0.00	0.000	0.321	86.5	36	56.4	86.0	1405	1	100.0	60
06/10/18	4:00 a	71.7	72.8	71.7	95	70.2	0.0	---	0.00	0.0	---	71.7	74.5	74.5	29.959	0.00	0.00	0.000	0.279	86.4	37	57.0	86.1	1405	1	100.0	60
06/10/18	5:00 a	70.9	71.7	70.9	95	69.4	0.0	---	0.00	0.0	---	70.9	73.6	73.6	29.958	0.00	0.00	0.000	0.246	86.2	38	57.6	86.1	1405	1	100.0	60
06/10/18	6:00 a	70.1	70.9	70.1	95	68.6	0.0	---	0.00	0.0	---	70.1	72.6	72.6	29.955	0.00	0.00	0.000	0.212	85.9	38	57.3	85.7	1405	1	100.0	60
06/10/18	7:00 a	73.9	73.9	70.1	94	72.1	0.0	---	0.00	0.0	---	73.9	76.8	76.8	29.961	0.00	0.00	0.000	0.371	86.9	38	58.2	86.8	1405	1	100.0	60
06/10/18	8:00 a	80.8	80.8	73.9	82	74.8	0.0	WSW	0.00	4.0	SSW	80.8	86.6	86.6	29.969	0.00	0.00	0.000	0.658	84.8	37	55.6	84.4	1405	1	100.0	60
06/10/18	9:00 a	83.0	83.4	80.8	73	73.4	0.0	WNW	0.00	7.0	WNW	83.0	89.4	89.4	29.983	0.00	0.00	0.000	0.750	87.3	36	57.1	86.6	1405	1	100.0	60
06/10/18	10:00 a	83.0	83.0	82.3	73	73.4	0.0	NW	0.00	7.0	WNW	83.0	89.4	89.4	29.983	0.00	0.00	0.000	0.750	87.4	34	55.6	86.2	1405	1	100.0	60
06/10/18	11:00 a	84.3	84.3	83.0	71	73.9	0.0	WNW	0.00	7.0	WNW	84.3	91.9	91.9	29.984	0.00	0.00	0.000	0.804	85.4	38	56.9	85.2	1405	1	100.0	60
06/10/18	12:00 p	86.3	86.3	84.3	67	74.0	0.0	ENE	0.00	7.0	ENE	86.3	94.8	94.8	29.972	0.00	0.00	0.000	0.888	84.7	38	56.3	84.5	1404	1	100.0	60
06/10/18	1:00 p	88.7	88.7	86.3	62	74.0	0.0	ENE	0.00	6.0	ENE	88.7	97.5	97.5	29.948	0.00	0.00	0.000	0.987	87.9	39	59.8	87.8	1405	1	100.0	60
06/10/18	2:00 p	90.0	90.3	88.7	56	72.2	0.0	ESE	0.00	5.0	SE	90.0	97.9	97.9	29.918	0.00	0.00	0.000	1.042	87.3	38	58.6	87.1	1405	1	100.0	60
06/10/18	3:00 p	90.4	90.4	89.2	63	76.1	0.0	NE	0.00	7.0	E	90.4	102.7	102.7	29.891	0.00	0.00	0.000	1.058	89.9	37	60.1	90.3	1405	1	100.0	60
06/10/18	4:00 p	87.5	90.4	87.1	69	76.1	0.0	NE	0.00	11.0	SSE	87.5	97.8	97.8	29.866	0.00	0.00	0.000	0.938	88.8	37	59.2	88.6	1405	1	100.0	60
06/10/18	5:00 p	89.4	89.5	87.6	67	77.0	0.0	SE	0.00	13.0	SE	89.4	102.0	102.0	29.854	0.00	0.00	0.000	1.017	91.0	35	59.5	91.2	1405	1	100.0	60
06/10/18	6:00 p	87.9	89.4	87.9	64	74.2	0.0	S	0.00	10.0	SSE	87.9	96.3	96.3	29.842	0.00	0.00	0.000	0.954	90.1	34	58.0	89.8	1405	1	100.0	60
06/10/18	7:00 p	86.9	87.9	86.9	72	76.8	0.0	S	0.00	11.0	S	86.9	98.1	98.1	29.848	0.00	0.00	0.000	0.913	88.2	33	55.5	86.6	1405	1	100.0	60
06/10/18	8:00 p	83.7	86.9	83.7	74	74.5	0.0	SE	0.00	14.0	SSE	83.7	91.6	91.6	29.840	0.00	0.00	0.000	0.779	88.6	35	57.4	87.7	1405	1	100.0	60
06/10/18	9:00 p	81.2	83.7	81.2	79	74.1	0.0	SW	0.00	5.0	SE	81.2	86.7	86.7	29.839	0.00	0.00	0.000	0.675	85.5	33	53.1	84.4	1405	1	100.0	60
06/10/18	10:00 p	79.7	81.2	79.7	84	74.4	0.0	---	0.00	0.0	---	79.7	84.8	84.8	29.846	0.00	0.00	0.000	0.612	86.3	35	55.4	85.6	1405	1	100.0	60
06/10/18	11:00 p	79.0	79.7	79.0	85	74.1	0.0	ESE	0.00	5.0	S	79.0	83.7	83.7	29.873	0.00	0.00	0.000	0.583	83.7	34	52.3	82.7	1405	1	100.0	60
06/11/18	12:00 a	75.6	79.0	75.6	90	72.5	0.0	W	0.00	11.0	SW	75.6	79.1	79.1	29.854	0.28	6.62	0.000	0.442	84.6	35	53.9	83.8	1405	1	100.0	60

MONDAY			Temp	Hi	Low	Out	Dew	Wind	Wind	Wind	Hi	Hi	Wind	Heat	THW			Rain	Heat	Cool	In 	In	In 	In 	Wind	Wind	ISS 	Arc.
Date		Time	Out	Temp	Temp	Hum	Pt.	Speed	Dir	Run	Speed	Dir	Chill	Index	Index	Bar  	Rain	Rate	D-D 	D-D 	Temp	Hum	Dew	Heat	Samp	Tx 	Recept	Int.
06/11/18	1:00 a	73.6	75.6	73.6	95	72.1	0.0	---	0.00	0.0	---	73.6	76.5	76.5	29.849	0.02	0.15	0.000	0.358	82.4	34	51.2	81.0	1403	1	100.0	60
06/11/18	2:00 a	71.6	73.6	71.6	96	70.4	0.0	SW	0.00	11.0	SW	71.6	74.5	74.5	29.853	0.51	9.14	0.000	0.275	82.8	36	53.1	81.7	1405	1	100.0	60
06/11/18	3:00 a	70.5	71.6	70.5	97	69.6	0.0	---	0.00	0.0	---	70.5	73.5	73.5	29.826	0.09	0.23	0.000	0.229	82.6	36	52.9	81.5	1405	1	100.0	60
06/11/18	4:00 a	70.4	70.6	70.3	98	69.8	0.0	---	0.00	0.0	---	70.4	73.6	73.6	29.810	0.00	0.00	0.000	0.225	80.5	35	50.3	79.0	1405	1	100.0	60
06/11/18	5:00 a	69.9	70.4	69.9	98	69.3	0.0	---	0.00	0.0	---	69.9	73.0	73.0	29.811	0.00	0.00	0.000	0.204	80.8	36	51.4	79.4	1405	1	100.0	60
06/11/18	6:00 a	69.6	70.0	69.6	98	69.0	0.0	---	0.00	0.0	---	69.6	72.5	72.5	29.813	0.00	0.00	0.000	0.192	82.9	35	52.4	81.7	1405	1	100.0	60
06/11/18	7:00 a	70.8	70.8	69.6	99	70.5	0.0	---	0.00	0.0	---	70.8	74.3	74.3	29.831	0.00	0.00	0.000	0.242	85.5	33	53.1	84.4	1405	1	100.0	60
06/11/18	8:00 a	72.7	72.7	70.8	99	72.4	0.0	---	0.00	0.0	---	72.7	76.1	76.1	29.852	0.00	0.00	0.000	0.321	84.6	32	51.5	83.2	1405	1	100.0	60
06/11/18	9:00 a	74.8	74.8	72.7	93	72.6	0.0	NW	0.00	5.0	NW	74.8	78.2	78.2	29.872	0.00	0.00	0.000	0.408	85.5	32	52.3	84.2	1405	1	100.0	60
06/11/18	10:00 a	75.2	75.4	74.7	91	72.4	0.0	NW	0.00	15.0	NW	75.2	78.7	78.7	29.885	0.00	0.00	0.000	0.425	84.5	31	50.5	83.0	1405	1	100.0	60
06/11/18	11:00 a	70.3	75.3	70.3	94	68.5	0.0	NE	0.00	20.0	E	70.3	72.8	72.8	29.915	0.00	0.00	0.000	0.221	81.4	39	54.1	80.4	1405	1	100.0	60
06/11/18	12:00 p	67.9	70.3	67.8	96	66.7	0.0	NE	0.00	20.0	NNE	67.9	69.8	69.8	29.946	0.00	0.00	0.000	0.121	82.0	40	55.3	81.3	1405	1	100.0	60
06/11/18	1:00 p	68.0	68.0	67.7	93	65.9	0.0	NE	0.00	17.0	NE	68.0	69.8	69.8	29.935	0.00	0.00	0.000	0.125	82.1	40	55.4	81.4	1405	1	100.0	60
06/11/18	2:00 p	70.1	70.1	68.0	89	66.7	4.0	NE	4.00	21.0	NE	70.1	72.0	72.0	29.945	0.00	0.00	0.000	0.212	82.4	40	55.7	81.9	1405	1	100.0	60
06/11/18	3:00 p	72.3	72.3	70.0	82	66.5	4.0	NE	4.00	24.0	NE	72.3	74.0	74.0	29.932	0.00	0.00	0.000	0.304	83.0	40	56.2	82.7	1404	1	100.0	60
06/11/18	4:00 p	69.7	72.3	69.7	86	65.3	4.0	NE	4.00	23.0	NE	69.7	71.4	71.4	29.956	0.00	0.00	0.000	0.196	83.0	39	55.5	82.5	1405	1	100.0	60
06/11/18	5:00 p	66.4	69.7	66.4	93	64.3	4.0	NE	4.00	23.0	ENE	66.4	67.8	67.8	29.985	0.03	0.21	0.000	0.058	81.1	38	53.1	79.9	1405	1	100.0	60
06/11/18	6:00 p	65.2	66.4	65.2	96	64.0	0.0	NE	0.00	21.0	NNE	65.2	66.5	66.5	29.989	0.11	0.34	0.000	0.008	81.4	39	54.1	80.4	1406	1	100.0	60
06/11/18	7:00 p	65.5	65.6	65.2	95	64.0	0.0	NE	0.00	17.0	NNE	65.5	66.8	66.8	30.004	0.00	0.00	0.000	0.021	81.2	40	54.6	80.3	1404	1	100.0	60
06/11/18	8:00 p	65.7	65.8	65.5	94	63.9	0.0	NE	0.00	17.0	NE	65.7	67.0	67.0	30.021	0.00	0.00	0.000	0.029	84.0	33	51.8	82.9	1405	1	100.0	60
06/11/18	9:00 p	65.6	65.7	65.5	94	63.8	0.0	NE	0.00	17.0	NE	65.6	66.9	66.9	30.056	0.00	0.00	0.000	0.025	83.4	36	53.6	82.6	1405	1	100.0	60
06/11/18	10:00 p	65.6	65.6	65.4	93	63.5	0.0	ENE	0.00	15.0	NE	65.6	66.9	66.9	30.072	0.00	0.00	0.000	0.025	83.2	36	53.5	82.3	1405	1	100.0	60
06/11/18	11:00 p	65.7	65.8	65.6	92	63.3	0.0	NE	0.00	17.0	ENE	65.7	67.0	67.0	30.081	0.00	0.00	0.000	0.029	82.9	37	54.0	82.0	1405	1	100.0	60
06/12/18	12:00 a	65.5	65.7	65.5	93	63.4	0.0	NE	0.00	14.0	NE	65.5	66.7	66.7	30.092	0.00	0.00	0.000	0.021	83.0	37	54.0	82.2	1406	1	100.0	60

TUESDAY			Temp	Hi	Low	Out	Dew	Wind	Wind	Wind	Hi	Hi	Wind	Heat	THW			Rain	Heat	Cool	In 	In	In 	In 	Wind	Wind	ISS 	Arc.
Date		Time	Out	Temp	Temp	Hum	Pt.	Speed	Dir	Run	Speed	Dir	Chill	Index	Index	Bar  	Rain	Rate	D-D 	D-D 	Temp	Hum	Dew	Heat	Samp	Tx 	Recept	Int.
06/12/18	1:00 a	65.8	65.8	65.5	91	63.1	0.0	NE	0.00	16.0	NE	65.8	67.1	67.1	30.099	0.00	0.00	0.000	0.033	82.8	37	53.9	81.9	1403	1	100.0	60
06/12/18	2:00 a	65.7	65.8	65.7	91	63.0	0.0	NE	0.00	16.0	NE	65.7	66.9	66.9	30.101	0.00	0.00	0.000	0.029	82.6	38	54.4	81.8	1405	1	100.0	60
06/12/18	3:00 a	65.6	65.8	65.6	91	62.9	0.0	ENE	0.00	16.0	NE	65.6	66.8	66.8	30.098	0.00	0.00	0.000	0.025	82.5	38	54.3	81.7	1404	1	100.0	60
06/12/18	4:00 a	65.2	65.6	65.2	90	62.2	0.0	NE	0.00	5.0	NE	65.2	66.3	66.3	30.110	0.00	0.00	0.000	0.008	82.3	38	54.2	81.4	1405	1	100.0	60
06/12/18	5:00 a	65.4	65.4	65.2	89	62.1	0.0	NE	0.00	6.0	NNE	65.4	66.5	66.5	30.114	0.00	0.00	0.000	0.017	82.2	38	54.1	81.3	1405	1	100.0	60
06/12/18	6:00 a	65.5	65.5	65.4	90	62.5	0.0	NE	0.00	10.0	NE	65.5	66.7	66.7	30.124	0.00	0.00	0.000	0.021	82.6	39	55.1	82.0	1405	1	100.0	60
06/12/18	7:00 a	66.5	66.5	65.4	86	62.2	0.0	NE	0.00	12.0	NE	66.5	67.7	67.7	30.132	0.00	0.00	0.000	0.063	83.3	38	55.0	82.8	1405	1	100.0	60
06/12/18	8:00 a	69.6	69.6	66.5	81	63.5	0.0	ENE	0.00	14.0	E	69.6	70.9	70.9	30.136	0.00	0.00	0.000	0.192	78.4	43	54.0	77.8	1405	1	100.0	60
06/12/18	9:00 a	73.2	73.2	69.6	78	65.9	0.0	NE	0.00	7.0	NE	73.2	74.9	74.9	30.151	0.00	0.00	0.000	0.342	78.5	44	54.8	78.0	1405	1	100.0	60
06/12/18	10:00 a	73.7	74.0	73.0	78	66.4	0.0	NE	0.00	12.0	NE	73.7	75.6	75.6	30.139	0.00	0.00	0.000	0.362	79.3	40	52.9	78.4	1405	1	100.0	60
06/12/18	11:00 a	73.5	74.1	73.1	80	66.9	0.0	NE	0.00	13.0	ENE	73.5	75.4	75.4	30.147	0.00	0.00	0.000	0.354	80.4	43	55.9	79.8	1405	1	100.0	60
06/12/18	12:00 p	74.4	74.4	72.9	80	67.8	0.0	NE	0.00	7.0	ENE	74.4	76.6	76.6	30.157	0.00	0.00	0.000	0.392	81.4	45	58.0	81.1	1405	1	100.0	60
06/12/18	1:00 p	72.2	74.6	72.1	86	67.8	0.0	NE	0.00	6.0	ENE	72.2	74.1	74.1	30.160	0.01	0.00	0.000	0.300	81.1	41	55.2	80.2	1405	1	100.0	60
06/12/18	2:00 p	70.5	72.4	70.5	93	68.4	0.0	NNE	0.00	4.0	NNE	70.5	72.9	72.9	30.159	0.03	0.05	0.000	0.229	81.1	42	55.8	80.4	1405	1	100.0	60
06/12/18	3:00 p	70.4	70.5	70.2	94	68.6	0.0	NE	0.00	4.0	NNE	70.4	72.9	72.9	30.139	0.01	0.00	0.000	0.225	81.2	43	56.6	80.6	1405	1	100.0	60
06/12/18	4:00 p	70.6	70.9	70.4	95	69.1	0.0	NE	0.00	4.0	NE	70.6	73.2	73.2	30.131	0.03	0.05	0.000	0.233	81.0	38	53.0	79.8	1405	1	100.0	60
06/12/18	5:00 p	70.7	70.7	70.4	95	69.2	0.0	NE	0.00	5.0	NE	70.7	73.3	73.3	30.121	0.00	0.00	0.000	0.237	80.4	41	54.5	79.5	1404	1	100.0	60
06/12/18	6:00 p	70.9	71.0	70.7	94	69.1	0.0	---	0.00	0.0	---	70.9	73.5	73.5	30.102	0.00	0.00	0.000	0.246	80.3	42	55.1	79.5	1405	1	100.0	60
06/12/18	7:00 p	70.5	70.9	70.5	94	68.7	0.0	SSW	0.00	4.0	SSW	70.5	73.0	73.0	30.094	0.00	0.00	0.000	0.229	81.4	41	55.4	80.6	1405	1	100.0	60
06/12/18	8:00 p	69.5	70.5	69.5	96	68.3	0.0	---	0.00	0.0	---	69.5	72.1	72.1	30.085	0.03	0.11	0.000	0.188	83.8	34	52.4	82.8	1405	1	100.0	60
06/12/18	9:00 p	69.1	69.5	69.1	97	68.2	0.0	---	0.00	0.0	---	69.1	71.7	71.7	30.071	0.02	0.07	0.000	0.171	83.5	36	53.7	82.7	1405	1	100.0	60
06/12/18	10:00 p	69.3	69.4	69.0	98	68.7	0.0	---	0.00	0.0	---	69.3	72.1	72.1	30.072	0.00	0.00	0.000	0.179	83.3	37	54.3	82.6	1405	1	100.0	60
06/12/18	11:00 p	69.5	69.5	69.3	98	68.9	0.0	---	0.00	0.0	---	69.5	72.4	72.4	30.074	0.00	0.00	0.000	0.188	83.2	38	55.0	82.7	1405	1	100.0	60
06/13/18	12:00 a	69.1	69.5	69.1	98	68.5	0.0	---	0.00	0.0	---	69.1	71.8	71.8	30.064	0.00	0.00	0.000	0.171	83.6	38	55.3	83.3	1405	1	100.0	60

WEDNESDAY		Temp	Hi	Low	Out	Dew	Wind	Wind	Wind	Hi	Hi	Wind	Heat	THW			Rain	Heat	Cool	In 	In	In 	In 	Wind	Wind	ISS 	Arc.
Date		Time	Out	Temp	Temp	Hum	Pt.	Speed	Dir	Run	Speed	Dir	Chill	Index	Index	Bar  	Rain	Rate	D-D 	D-D 	Temp	Hum	Dew	Heat	Samp	Tx 	Recept	Int.
06/13/18	1:00 a	69.3	69.3	69.0	99	69.0	0.0	---	0.00	0.0	---	69.3	72.2	72.2	30.049	0.00	0.00	0.000	0.179	83.3	38	55.0	82.8	1404	1	100.0	60
06/13/18	2:00 a	69.5	69.6	69.3	99	69.2	0.0	---	0.00	0.0	---	69.5	72.5	72.5	30.034	0.00	0.00	0.000	0.188	83.4	38	55.1	83.0	1405	1	100.0	60
06/13/18	3:00 a	69.7	69.7	69.5	99	69.4	0.0	---	0.00	0.0	---	69.7	72.8	72.8	30.027	0.00	0.00	0.000	0.196	83.3	38	55.0	82.8	1405	1	100.0	60
06/13/18	4:00 a	70.0	70.0	69.6	99	69.7	0.0	---	0.00	0.0	---	70.0	73.3	73.3	30.021	0.00	0.00	0.000	0.208	83.3	38	55.0	82.8	1405	1	100.0	60
06/13/18	5:00 a	69.9	70.0	69.9	99	69.6	0.0	---	0.00	0.0	---	69.9	73.1	73.1	30.008	0.00	0.00	0.000	0.204	83.4	38	55.1	83.0	1405	1	100.0	60
06/13/18	6:00 a	70.0	70.0	69.9	100	70.0	0.0	---	0.00	0.0	---	70.0	73.5	73.5	30.018	0.00	0.00	0.000	0.208	84.1	37	55.0	83.8	1404	1	100.0	60
06/13/18	7:00 a	70.0	70.1	70.0	100	70.0	0.0	---	0.00	0.0	---	70.0	73.5	73.5	30.020	0.00	0.00	0.000	0.208	84.0	38	55.7	83.9	1405	1	100.0	60
06/13/18	8:00 a	70.3	70.3	70.0	99	70.0	0.0	W	0.00	4.0	WNW	70.3	73.7	73.7	30.037	0.00	0.00	0.000	0.221	82.6	36	52.9	81.5	1405	1	100.0	60
06/13/18	9:00 a	72.0	72.0	70.3	99	71.7	0.0	N	0.00	4.0	N	72.0	75.4	75.4	30.033	0.00	0.00	0.000	0.292	84.0	36	54.2	83.5	1405	1	100.0	60
06/13/18	10:00 a	74.7	74.7	72.0	94	72.9	0.0	WSW	0.00	4.0	W	74.7	78.1	78.1	30.026	0.00	0.00	0.000	0.404	84.5	37	55.4	84.1	1405	1	100.0	60
06/13/18	11:00 a	77.3	77.3	74.7	88	73.5	0.0	SSW	0.00	6.0	SSW	77.3	81.3	81.3	30.014	0.00	0.00	0.000	0.513	84.1	35	53.5	83.4	1405	1	100.0	60
06/13/18	12:00 p	80.0	80.0	77.3	84	74.7	0.0	SSW	0.00	16.0	S	80.0	85.4	85.4	30.002	0.00	0.00	0.000	0.625	85.9	36	55.8	85.4	1405	1	100.0	60
06/13/18	1:00 p	82.4	82.6	80.0	78	74.8	0.0	SSW	0.00	14.0	SSW	82.4	89.4	89.4	29.984	0.00	0.00	0.000	0.725	87.5	35	56.5	86.5	1405	1	100.0	60
06/13/18	2:00 p	84.5	84.5	82.4	74	75.3	0.0	SSW	0.00	14.0	SSW	84.5	93.3	93.3	29.957	0.00	0.00	0.000	0.813	88.9	37	59.3	88.8	1405	1	100.0	60
06/13/18	3:00 p	86.1	86.1	84.5	73	76.4	0.0	SSW	0.00	14.0	SW	86.1	96.6	96.6	29.944	0.00	0.00	0.000	0.879	90.6	30	54.9	89.7	1405	1	100.0	60
06/13/18	4:00 p	86.8	86.8	86.1	70	75.8	0.0	SW	0.00	13.0	WSW	86.8	97.1	97.1	29.930	0.00	0.00	0.000	0.908	91.9	35	60.3	92.5	1405	1	100.0	60
06/13/18	5:00 p	87.0	87.2	86.8	69	75.6	0.0	SSW	0.00	15.0	N	87.0	97.1	97.1	29.911	0.00	0.00	0.000	0.917	93.6	32	59.3	94.0	1405	1	100.0	60
06/13/18	6:00 p	87.1	87.1	86.8	69	75.7	0.0	W	0.00	16.0	W	87.1	97.3	97.3	29.894	0.00	0.00	0.000	0.921	92.2	33	58.9	92.4	1405	1	100.0	60
06/13/18	7:00 p	85.7	87.2	85.7	71	75.2	0.0	SSW	0.00	14.0	SSE	85.7	94.9	94.9	29.891	0.00	0.00	0.000	0.862	94.1	35	62.3	95.6	1405	1	100.0	60
06/13/18	8:00 p	82.7	85.7	82.7	75	74.0	0.0	SSW	0.00	10.0	SSE	82.7	89.3	89.3	29.903	0.00	0.00	0.000	0.737	90.9	32	57.0	90.5	1404	1	100.0	60
06/13/18	9:00 p	79.6	82.7	79.6	81	73.3	0.0	S	0.00	4.0	S	79.6	84.0	84.0	29.906	0.00	0.00	0.000	0.608	91.5	34	59.2	91.7	1406	1	100.0	60
06/13/18	10:00 p	78.1	79.6	78.1	84	72.9	0.0	WSW	0.00	4.0	WSW	78.1	82.1	82.1	29.913	0.00	0.00	0.000	0.546	89.2	31	54.6	87.6	1405	1	100.0	60
06/13/18	11:00 p	76.9	78.1	76.9	87	72.7	0.0	---	0.00	0.0	---	76.9	80.6	80.6	29.924	0.00	0.00	0.000	0.496	89.7	34	57.6	89.2	1404	1	100.0	60
06/14/18	12:00 a	76.0	76.9	76.0	89	72.5	0.0	SW	0.00	10.0	SW	76.0	79.4	79.4	29.910	0.00	0.00	0.000	0.458	89.7	35	58.4	89.4	1405	1	100.0	60

THURSDAY		Temp	Hi	Low	Out	Dew	Wind	Wind	Wind	Hi	Hi	Wind	Heat	THW			Rain	Heat	Cool	In 	In	In 	In 	Wind	Wind	ISS 	Arc.
Date		Time	Out	Temp	Temp	Hum	Pt.	Speed	Dir	Run	Speed	Dir	Chill	Index	Index	Bar  	Rain	Rate	D-D 	D-D 	Temp	Hum	Dew	Heat	Samp	Tx 	Recept	Int.
06/14/18	1:00 a	75.7	76.0	75.7	90	72.6	0.0	S	0.00	5.0	SSW	75.7	79.2	79.2	29.895	0.00	0.00	0.000	0.446	87.6	32	54.1	85.9	1404	1	100.0	60
06/14/18	2:00 a	75.4	75.8	75.4	90	72.3	0.0	S	0.00	6.0	SW	75.4	78.8	78.8	29.888	0.00	0.00	0.000	0.433	87.9	34	56.0	86.5	1405	1	100.0	60
06/14/18	3:00 a	74.4	75.4	74.4	92	71.9	0.0	---	0.00	0.0	---	74.4	77.4	77.4	29.883	0.00	0.00	0.000	0.392	87.8	35	56.7	86.7	1405	1	100.0	60
06/14/18	4:00 a	73.7	74.4	73.7	93	71.5	0.0	---	0.00	0.0	---	73.7	76.4	76.4	29.881	0.00	0.00	0.000	0.362	87.6	35	56.6	86.6	1405	1	100.0	60
06/14/18	5:00 a	73.4	73.8	73.4	94	71.6	0.0	---	0.00	0.0	---	73.4	76.2	76.2	29.871	0.00	0.00	0.000	0.350	85.7	33	53.3	84.6	1405	1	100.0	60
06/14/18	6:00 a	72.6	73.4	72.6	95	71.1	0.0	---	0.00	0.0	---	72.6	75.4	75.4	29.870	0.00	0.00	0.000	0.317	86.0	34	54.4	85.1	1405	1	100.0	60
06/14/18	7:00 a	76.1	76.1	72.6	92	73.6	0.0	ENE	0.00	4.0	SW	76.1	79.8	79.8	29.872	0.00	0.00	0.000	0.462	87.0	35	56.0	86.2	1405	1	100.0	60
06/14/18	8:00 a	84.9	84.9	76.2	75	76.1	0.0	WSW	0.00	7.0	WSW	84.9	94.4	94.4	29.901	0.00	0.00	0.000	0.829	86.3	32	53.0	85.0	1404	1	100.0	60
06/14/18	9:00 a	86.9	86.9	84.8	70	75.9	0.0	WNW	0.00	14.0	WSW	86.9	97.3	97.3	29.912	0.00	0.00	0.000	0.913	87.4	34	55.6	86.2	1405	1	100.0	60
06/14/18	10:00 a	85.9	87.0	85.4	70	75.0	0.0	WNW	0.00	13.0	WNW	85.9	95.1	95.1	29.913	0.00	0.00	0.000	0.871	87.6	31	53.2	85.7	1405	1	100.0	60
06/14/18	11:00 a	84.6	86.0	84.6	71	74.2	0.0	NE	0.00	7.0	NW	84.6	92.4	92.4	29.925	0.00	0.00	0.000	0.817	89.6	35	58.3	89.3	1405	1	100.0	60
06/14/18	12:00 p	84.0	84.9	84.0	61	69.1	0.0	NE	0.00	18.0	WNW	84.0	88.0	88.0	29.931	0.00	0.00	0.000	0.792	89.4	31	54.8	88.0	1405	1	100.0	60
06/14/18	1:00 p	84.2	84.6	83.9	59	68.3	0.0	ENE	0.00	16.0	NNW	84.2	87.8	87.8	29.923	0.00	0.00	0.000	0.800	91.8	33	58.6	91.9	1405	1	100.0	60
06/14/18	2:00 p	85.3	85.3	84.0	60	69.8	0.0	ENE	0.00	14.0	NE	85.3	90.0	90.0	29.913	0.00	0.00	0.000	0.846	91.2	32	57.2	90.9	1405	1	100.0	60
06/14/18	3:00 p	85.1	85.6	84.9	59	69.2	0.0	NE	0.00	14.0	ENE	85.1	89.3	89.3	29.896	0.00	0.00	0.000	0.837	93.5	32	59.2	93.9	1405	1	100.0	60
06/14/18	4:00 p	86.3	86.3	85.2	57	69.3	0.0	ENE	0.00	11.0	ENE	86.3	91.1	91.1	29.879	0.00	0.00	0.000	0.888	93.1	31	58.0	93.1	1405	1	100.0	60
06/14/18	5:00 p	87.1	87.1	86.3	54	68.4	0.0	NE	0.00	15.0	NW	87.1	91.6	91.6	29.879	0.00	0.00	0.000	0.921	95.2	30	58.9	95.6	1405	1	100.0	60
06/14/18	6:00 p	88.0	88.0	87.1	53	68.7	0.0	WNW	0.00	6.0	WNW	88.0	92.4	92.4	29.894	0.00	0.00	0.000	0.958	94.8	30	58.5	95.0	1405	1	100.0	60
06/14/18	7:00 p	87.2	88.1	87.2	51	66.9	0.0	NNW	0.00	12.0	WNW	87.2	90.7	90.7	29.887	0.00	0.00	0.000	0.925	95.8	29	58.4	96.0	1405	1	100.0	60
06/14/18	8:00 p	85.0	87.2	85.0	56	67.5	0.0	NNW	0.00	11.0	NW	85.0	88.2	88.2	29.885	0.00	0.00	0.000	0.833	92.6	30	56.6	92.2	1405	1	100.0	60
06/14/18	9:00 p	80.2	85.0	80.2	63	66.5	0.0	---	0.00	0.0	---	80.2	82.0	82.0	29.905	0.00	0.00	0.000	0.633	91.3	30	55.5	90.6	1405	1	100.0	60
06/14/18	10:00 p	76.4	80.1	76.4	72	66.7	0.0	NW	0.00	4.0	NW	76.4	78.5	78.5	29.922	0.00	0.00	0.000	0.475	90.3	31	55.6	89.5	1405	1	100.0	60
06/14/18	11:00 p	74.2	76.4	74.2	76	66.1	0.0	---	0.00	0.0	---	74.2	76.2	76.2	29.931	0.00	0.00	0.000	0.383	90.0	31	55.3	89.2	1405	1	100.0	60
06/15/18	12:00 a	72.6	74.2	72.6	83	67.1	0.0	---	0.00	0.0	---	72.6	74.4	74.4	29.932	0.00	0.00	0.000	0.317	87.9	31	53.5	85.9	1404	1	100.0	60

FRIDAY			Temp	Hi	Low	Out	Dew	Wind	Wind	Wind	Hi	Hi	Wind	Heat	THW			Rain	Heat	Cool	In 	In	In 	In 	Wind	Wind	ISS 	Arc.
Date		Time	Out	Temp	Temp	Hum	Pt.	Speed	Dir	Run	Speed	Dir	Chill	Index	Index	Bar  	Rain	Rate	D-D 	D-D 	Temp	Hum	Dew	Heat	Samp	Tx 	Recept	Int.
06/15/18	1:00 a	72.0	72.6	72.0	90	68.9	0.0	---	0.00	0.0	---	72.0	74.2	74.2	29.931	0.00	0.00	0.000	0.292	88.3	33	55.6	86.8	1403	1	100.0	60
06/15/18	2:00 a	71.0	72.0	71.0	92	68.6	0.0	---	0.00	0.0	---	71.0	73.4	73.4	29.940	0.00	0.00	0.000	0.250	88.0	34	56.1	86.6	1405	1	100.0	60
06/15/18	3:00 a	70.8	71.0	70.7	94	69.0	0.0	---	0.00	0.0	---	70.8	73.4	73.4	29.936	0.00	0.00	0.000	0.242	85.7	34	54.1	84.8	1405	1	100.0	60
06/15/18	4:00 a	71.3	71.3	70.8	95	69.8	0.0	---	0.00	0.0	---	71.3	74.0	74.0	29.936	0.00	0.00	0.000	0.263	86.4	35	55.5	85.7	1405	1	100.0	60
06/15/18	5:00 a	71.1	71.6	71.1	93	69.0	0.0	---	0.00	0.0	---	71.1	73.6	73.6	29.937	0.00	0.00	0.000	0.254	86.3	35	55.4	85.6	1405	1	100.0	60
06/15/18	6:00 a	70.2	71.1	70.2	94	68.4	0.0	---	0.00	0.0	---	70.2	72.6	72.6	29.941	0.00	0.00	0.000	0.217	86.4	36	56.3	85.9	1405	1	100.0	60
06/15/18	7:00 a	73.4	73.4	70.1	82	67.6	0.0	N	0.00	4.0	NW	73.4	75.4	75.4	29.958	0.00	0.00	0.000	0.350	85.7	34	54.1	84.8	1405	1	100.0	60
06/15/18	8:00 a	79.0	79.0	73.4	63	65.3	0.0	ENE	0.00	5.0	W	79.0	80.5	80.5	29.969	0.00	0.00	0.000	0.583	85.7	35	54.9	85.0	1405	1	100.0	60
06/15/18	9:00 a	83.1	83.4	79.1	48	61.4	0.0	NNW	0.00	10.0	NW	83.1	84.1	84.1	29.973	0.00	0.00	0.000	0.754	87.6	34	55.8	86.3	1405	1	100.0	60
06/15/18	10:00 a	82.3	83.2	82.3	49	61.2	0.0	ENE	0.00	12.0	ENE	82.3	82.9	82.9	29.985	0.00	0.00	0.000	0.721	86.5	32	53.1	85.2	1405	1	100.0	60
06/15/18	11:00 a	82.1	82.3	81.8	42	56.7	0.0	NNW	0.00	22.0	WNW	82.1	81.7	81.7	29.989	0.00	0.00	0.000	0.712	89.0	33	56.2	87.8	1405	1	100.0	60
06/15/18	12:00 p	82.9	82.9	82.0	43	58.1	0.0	NW	0.00	17.0	NW	82.9	83.0	83.0	29.990	0.00	0.00	0.000	0.746	89.3	32	55.6	88.1	1405	1	100.0	60
06/15/18	1:00 p	83.2	83.2	82.8	41	57.1	0.0	NNW	0.00	16.0	NNW	83.2	83.2	83.2	29.970	0.00	0.00	0.000	0.758	91.0	31	56.2	90.4	1404	1	100.0	60
06/15/18	2:00 p	84.1	84.2	83.2	37	55.0	0.0	NE	0.00	15.0	NE	84.1	83.8	83.8	29.951	0.00	0.00	0.000	0.796	91.2	31	56.3	90.6	1405	1	100.0	60
06/15/18	3:00 p	85.4	85.8	84.1	38	56.9	0.0	ENE	0.00	12.0	WNW	85.4	85.2	85.2	29.954	0.00	0.00	0.000	0.850	93.2	31	58.1	93.2	1405	1	100.0	60
06/15/18	4:00 p	85.7	85.7	85.0	42	60.0	0.0	NNE	0.00	10.0	WSW	85.7	86.2	86.2	29.953	0.00	0.00	0.000	0.862	92.9	30	56.9	92.6	1405	1	100.0	60
06/15/18	5:00 p	85.6	85.9	85.4	41	59.2	0.0	SW	0.00	12.0	NW	85.6	85.9	85.9	29.952	0.00	0.00	0.000	0.858	95.0	30	58.7	95.3	1405	1	100.0	60
06/15/18	6:00 p	86.1	86.1	85.6	39	58.2	0.0	NW	0.00	10.0	NNW	86.1	86.1	86.1	29.941	0.00	0.00	0.000	0.879	94.2	27	55.1	93.2	1405	1	100.0	60
06/15/18	7:00 p	84.6	86.2	84.6	41	58.3	0.0	ENE	0.00	14.0	WNW	84.6	85.0	85.0	29.952	0.00	0.00	0.000	0.817	95.0	27	55.8	94.3	1405	1	100.0	60
06/15/18	8:00 p	81.8	84.6	81.8	52	62.5	0.0	NE	0.00	5.0	NW	81.8	82.6	82.6	29.954	0.00	0.00	0.000	0.700	93.0	28	55.1	92.0	1405	1	100.0	60
06/15/18	9:00 p	77.8	81.8	77.8	58	61.8	0.0	---	0.00	0.0	---	77.8	78.5	78.5	29.959	0.00	0.00	0.000	0.533	92.8	30	56.8	92.4	1405	1	100.0	60
06/15/18	10:00 p	74.0	77.7	74.0	65	61.5	0.0	---	0.00	0.0	---	74.0	75.2	75.2	29.982	0.00	0.00	0.000	0.375	89.9	29	53.4	88.5	1405	1	100.0	60
06/15/18	11:00 p	71.7	74.0	71.7	73	62.6	0.0	---	0.00	0.0	---	71.7	72.5	72.5	29.991	0.00	0.00	0.000	0.279	90.2	30	54.6	89.2	1405	1	100.0	60
06/16/18	12:00 a	69.5	71.7	69.5	78	62.3	0.0	---	0.00	0.0	---	69.5	70.6	70.6	30.003	0.00	0.00	0.000	0.188	88.3	29	52.0	85.9	1405	1	100.0	60

SATURDAY		Temp	Hi	Low	Out	Dew	Wind	Wind	Wind	Hi	Hi	Wind	Heat	THW			Rain	Heat	Cool	In 	In	In 	In 	Wind	Wind	ISS 	Arc.
Date		Time	Out	Temp	Temp	Hum	Pt.	Speed	Dir	Run	Speed	Dir	Chill	Index	Index	Bar  	Rain	Rate	D-D 	D-D 	Temp	Hum	Dew	Heat	Samp	Tx 	Recept	Int.
06/16/18	1:00 a	68.8	69.5	68.8	82	63.1	0.0	---	0.00	0.0	---	68.8	70.4	70.4	30.015	0.00	0.00	0.000	0.158	88.2	30	52.9	86.0	1403	1	100.0	60
06/16/18	2:00 a	68.0	68.8	68.0	84	63.0	0.0	---	0.00	0.0	---	68.0	69.5	69.5	30.022	0.00	0.00	0.000	0.125	88.0	31	53.6	85.9	1405	1	100.0	60
06/16/18	3:00 a	67.2	68.0	67.2	85	62.5	0.0	---	0.00	0.0	---	67.2	68.5	68.5	30.020	0.00	0.00	0.000	0.092	87.6	31	53.2	85.7	1405	1	100.0	60
06/16/18	4:00 a	66.1	67.2	66.1	87	62.1	0.0	---	0.00	0.0	---	66.1	67.2	67.2	30.017	0.00	0.00	0.000	0.046	86.1	31	51.9	84.6	1405	1	100.0	60
06/16/18	5:00 a	64.8	66.1	64.8	89	61.5	0.0	---	0.00	0.0	---	64.8	65.7	65.7	30.031	0.00	0.00	0.008	0.000	85.6	31	51.5	84.1	1405	1	100.0	60
06/16/18	6:00 a	64.3	64.8	64.2	93	62.2	0.0	---	0.00	0.0	---	64.3	65.3	65.3	30.050	0.00	0.00	0.029	0.000	85.3	32	52.1	83.9	1405	1	100.0	60
06/16/18	7:00 a	66.8	66.8	64.3	96	65.6	0.0	---	0.00	0.0	---	66.8	68.4	68.4	30.048	0.00	0.00	0.000	0.075	85.6	32	52.4	84.3	1405	1	100.0	60
06/16/18	8:00 a	77.3	77.3	66.8	78	69.9	0.0	S	0.00	4.0	S	77.3	80.2	80.2	30.062	0.00	0.00	0.000	0.513	83.4	32	50.4	81.9	1405	1	100.0	60
06/16/18	9:00 a	82.1	82.1	77.3	63	68.3	0.0	SE	0.00	4.0	SE	82.1	85.0	85.0	30.068	0.00	0.00	0.000	0.712	86.2	31	52.0	84.7	1405	1	100.0	60
06/16/18	10:00 a	83.7	83.8	82.1	50	63.1	0.0	SW	0.00	10.0	SW	83.7	85.3	85.3	30.071	0.00	0.00	0.000	0.779	85.4	31	51.3	83.8	1405	1	100.0	60
06/16/18	11:00 a	84.3	84.3	83.4	52	64.8	0.0	SW	0.00	7.0	SW	84.3	86.5	86.5	30.069	0.00	0.00	0.000	0.804	88.7	32	55.1	87.1	1405	1	100.0	60
06/16/18	12:00 p	85.3	85.4	84.3	49	64.0	0.0	NE	0.00	7.0	SSE	85.3	87.0	87.0	30.061	0.00	0.00	0.000	0.846	88.8	30	53.4	86.7	1405	1	100.0	60
06/16/18	1:00 p	84.3	85.9	84.3	47	61.9	0.0	NE	0.00	7.0	SW	84.3	85.7	85.7	30.051	0.00	0.00	0.000	0.804	89.5	30	54.0	88.0	1405	1	100.0	60
06/16/18	2:00 p	86.6	86.6	84.2	51	66.3	0.0	S	0.00	7.0	SSE	86.6	89.7	89.7	30.024	0.00	0.00	0.000	0.900	90.1	32	56.3	89.5	1405	1	100.0	60
06/16/18	3:00 p	87.3	87.4	86.6	54	68.6	0.0	SW	0.00	6.0	SSW	87.3	91.9	91.9	30.020	0.00	0.00	0.000	0.929	89.9	29	53.4	88.5	1404	1	100.0	60
06/16/18	4:00 p	88.4	88.4	86.9	51	68.0	0.0	SW	0.00	7.0	WSW	88.4	92.7	92.7	30.007	0.00	0.00	0.000	0.975	92.3	31	57.3	92.0	1405	1	100.0	60
06/16/18	5:00 p	88.6	88.9	88.4	46	65.2	0.0	SSE	0.00	16.0	SSE	88.6	91.4	91.4	30.006	0.00	0.00	0.000	0.983	91.0	29	54.3	89.9	1406	1	100.0	60
06/16/18	6:00 p	86.4	88.6	86.4	46	63.2	0.0	S	0.00	18.0	S	86.4	88.0	88.0	30.002	0.00	0.00	0.000	0.892	93.5	30	57.4	93.3	1404	1	100.0	60
06/16/18	7:00 p	83.7	86.4	83.7	47	61.3	0.0	SSE	0.00	13.0	ESE	83.7	84.9	84.9	30.008	0.00	0.00	0.000	0.779	90.7	28	53.1	89.2	1405	1	100.0	60
06/16/18	8:00 p	80.3	83.7	80.3	50	60.0	0.0	SW	0.00	4.0	SW	80.3	80.4	80.4	30.015	0.00	0.00	0.000	0.638	92.4	30	56.5	91.9	1405	1	100.0	60
06/16/18	9:00 p	77.4	80.3	77.4	57	61.0	0.0	---	0.00	0.0	---	77.4	78.0	78.0	30.018	0.00	0.00	0.000	0.517	90.1	28	52.6	88.5	1405	1	100.0	60
06/16/18	10:00 p	75.5	77.4	75.5	61	61.1	0.0	SE	0.00	6.0	SE	75.5	76.4	76.4	30.044	0.00	0.00	0.000	0.438	90.4	29	53.8	89.2	1405	1	100.0	60
06/16/18	11:00 p	75.4	75.6	75.4	65	62.8	0.0	WNW	0.00	5.0	SE	75.4	76.7	76.7	30.051	0.00	0.00	0.000	0.433	88.0	28	50.8	85.4	1405	1	100.0	60
06/17/18	12:00 a	73.8	75.4	73.8	70	63.4	0.0	ESE	0.00	12.0	SE	73.8	75.3	75.3	30.054	0.00	0.00	0.000	0.367	88.5	29	52.2	86.2	1405	1	100.0	60

SUNDAY			Temp	Hi	Low	Out	Dew	Wind	Wind	Wind	Hi	Hi	Wind	Heat	THW			Rain	Heat	Cool	In 	In	In 	In 	Wind	Wind	ISS 	Arc.
Date		Time	Out	Temp	Temp	Hum	Pt.	Speed	Dir	Run	Speed	Dir	Chill	Index	Index	Bar  	Rain	Rate	D-D 	D-D 	Temp	Hum	Dew	Heat	Samp	Tx 	Recept	Int.
06/17/18	1:00 a	72.7	73.8	72.7	75	64.3	0.0	---	0.00	0.0	---	72.7	74.0	74.0	30.050	0.00	0.00	0.000	0.321	86.2	29	50.2	84.3	1404	1	100.0	60
06/17/18	2:00 a	72.3	72.7	72.3	79	65.4	0.0	WSW	0.00	7.0	WSW	72.3	73.7	73.7	30.048	0.00	0.00	0.000	0.304	86.9	29	50.8	84.9	1405	1	100.0	60
06/17/18	3:00 a	71.9	72.3	71.9	83	66.5	0.0	---	0.00	0.0	---	71.9	73.5	73.5	30.047	0.00	0.00	0.000	0.288	86.7	30	51.6	84.9	1405	1	100.0	60
06/17/18	4:00 a	71.1	71.9	71.1	85	66.4	0.0	---	0.00	0.0	---	71.1	72.9	72.9	30.031	0.00	0.00	0.000	0.254	86.4	31	52.2	84.9	1404	1	100.0	60
06/17/18	5:00 a	70.4	71.1	70.4	89	67.0	0.0	SSW	0.00	12.0	SSW	70.4	72.4	72.4	30.025	0.00	0.00	0.000	0.225	86.3	31	52.1	84.8	1406	1	100.0	60
06/17/18	6:00 a	70.3	70.4	70.3	90	67.2	0.0	S	0.00	11.0	SW	70.3	72.4	72.4	30.036	0.00	0.00	0.000	0.221	86.1	32	52.8	84.8	1405	1	100.0	60

			Temp	Hi	Low	Out	Dew	Wind	Wind	Wind	Hi	Hi	Wind	Heat	THW			Rain	Heat	Cool	In 	In	In 	In 	Wind	Wind	ISS 	Arc.
Date		Time	Out	Temp	Temp	Hum	Pt.	Speed	Dir	Run	Speed	Dir	Chill	Index	Index	Bar  	Rain	Rate	D-D 	D-D 	Temp	Hum	Dew	Heat	Samp	Tx 	Recept	Int.